<?xml version="1.0" encoding="UTF-8" standalone="no" ?>
<gpx xmlns="http://www.topografix.com/GPX/1/1" xmlns:xsi="http://www.w3.org/2001/XMLSchema-instance" xsi:schemaLocation="http://www.topografix.com/GPX/1/1 http://www.topografix.com/GPX/1/1/gpx.xsd" version="1.1" creator="VisuGPX - https://www.visugpx.com">
  <metadata>
    <name>Saint Nicolas au Bois 6 nov 17</name>
    <desc><![CDATA[File with points/tracks from Locus Map/3.26.2]]></desc>
  </metadata>
  <trk>
    <name><![CDATA[2017-11-06 13:52:19]]></name>
    <trkseg>
      <trkpt lat="49.59217" lon="3.43014">
        <ele>102.03</ele>
        <time>2017-11-06T12:52:20.999Z</time>
      </trkpt>
      <trkpt lat="49.59215" lon="3.43018">
        <ele>96.12</ele>
        <time>2017-11-06T12:52:36.999Z</time>
      </trkpt>
      <trkpt lat="49.59217" lon="3.43025">
        <ele>94.87</ele>
        <time>2017-11-06T12:52:46.999Z</time>
      </trkpt>
      <trkpt lat="49.59209" lon="3.43025">
        <ele>93.9</ele>
        <time>2017-11-06T12:52:56.999Z</time>
      </trkpt>
      <trkpt lat="49.5921" lon="3.43033">
        <ele>93.86</ele>
        <time>2017-11-06T12:53:06.999Z</time>
      </trkpt>
      <trkpt lat="49.59214" lon="3.4302">
        <ele>92.85</ele>
        <time>2017-11-06T12:53:16.999Z</time>
      </trkpt>
      <trkpt lat="49.59213" lon="3.43018">
        <ele>91.38</ele>
        <time>2017-11-06T12:53:26.999Z</time>
      </trkpt>
      <trkpt lat="49.59214" lon="3.43025">
        <ele>90.71</ele>
        <time>2017-11-06T12:53:36.999Z</time>
      </trkpt>
      <trkpt lat="49.59218" lon="3.43031">
        <ele>88.88</ele>
        <time>2017-11-06T12:53:46.999Z</time>
      </trkpt>
      <trkpt lat="49.59219" lon="3.4303">
        <ele>87.04</ele>
        <time>2017-11-06T12:53:56.000Z</time>
      </trkpt>
      <trkpt lat="49.59222" lon="3.43029">
        <ele>82.12</ele>
        <time>2017-11-06T12:54:06.000Z</time>
      </trkpt>
      <trkpt lat="49.59219" lon="3.43025">
        <ele>80.33</ele>
        <time>2017-11-06T12:54:16.000Z</time>
      </trkpt>
      <trkpt lat="49.59217" lon="3.43021">
        <ele>78.89</ele>
        <time>2017-11-06T12:54:26.000Z</time>
      </trkpt>
      <trkpt lat="49.59215" lon="3.43023">
        <ele>78.68</ele>
        <time>2017-11-06T12:54:36.000Z</time>
      </trkpt>
      <trkpt lat="49.59213" lon="3.43029">
        <ele>76.92</ele>
        <time>2017-11-06T12:54:46.000Z</time>
      </trkpt>
      <trkpt lat="49.59215" lon="3.43026">
        <ele>75.09</ele>
        <time>2017-11-06T12:54:56.000Z</time>
      </trkpt>
      <trkpt lat="49.59214" lon="3.43021">
        <ele>73.73</ele>
        <time>2017-11-06T12:55:06.000Z</time>
      </trkpt>
      <trkpt lat="49.59209" lon="3.43026">
        <ele>73.18</ele>
        <time>2017-11-06T12:55:16.000Z</time>
      </trkpt>
      <trkpt lat="49.59208" lon="3.43031">
        <ele>72.16</ele>
        <time>2017-11-06T12:55:26.000Z</time>
      </trkpt>
      <trkpt lat="49.59216" lon="3.43035">
        <ele>71.27</ele>
        <time>2017-11-06T12:55:36.000Z</time>
      </trkpt>
      <trkpt lat="49.59215" lon="3.43037">
        <ele>69.61</ele>
        <time>2017-11-06T12:55:46.000Z</time>
      </trkpt>
      <trkpt lat="49.59217" lon="3.43031">
        <ele>67.87</ele>
        <time>2017-11-06T12:55:56.000Z</time>
      </trkpt>
      <trkpt lat="49.59214" lon="3.43023">
        <ele>66.31</ele>
        <time>2017-11-06T12:56:06.000Z</time>
      </trkpt>
      <trkpt lat="49.59209" lon="3.43018">
        <ele>64.39</ele>
        <time>2017-11-06T12:56:16.000Z</time>
      </trkpt>
      <trkpt lat="49.59208" lon="3.4302">
        <ele>64.26</ele>
        <time>2017-11-06T12:56:26.000Z</time>
      </trkpt>
      <trkpt lat="49.59208" lon="3.43018">
        <ele>64.11</ele>
        <time>2017-11-06T12:56:36.000Z</time>
      </trkpt>
      <trkpt lat="49.59217" lon="3.43018">
        <ele>64.15</ele>
        <time>2017-11-06T12:56:46.000Z</time>
      </trkpt>
      <trkpt lat="49.59223" lon="3.43017">
        <ele>66.55</ele>
        <time>2017-11-06T12:56:56.000Z</time>
      </trkpt>
      <trkpt lat="49.59219" lon="3.43015">
        <ele>68.65</ele>
        <time>2017-11-06T12:57:06.000Z</time>
      </trkpt>
      <trkpt lat="49.59216" lon="3.43014">
        <ele>70.66</ele>
        <time>2017-11-06T12:57:16.000Z</time>
      </trkpt>
      <trkpt lat="49.59213" lon="3.43007">
        <ele>71.37</ele>
        <time>2017-11-06T12:57:26.000Z</time>
      </trkpt>
      <trkpt lat="49.59215" lon="3.43009">
        <ele>71.58</ele>
        <time>2017-11-06T12:57:36.000Z</time>
      </trkpt>
      <trkpt lat="49.59217" lon="3.43018">
        <ele>72.1</ele>
        <time>2017-11-06T12:57:46.000Z</time>
      </trkpt>
      <trkpt lat="49.59216" lon="3.43019">
        <ele>72.85</ele>
        <time>2017-11-06T12:57:56.000Z</time>
      </trkpt>
      <trkpt lat="49.59213" lon="3.43022">
        <ele>74.21</ele>
        <time>2017-11-06T12:58:06.000Z</time>
      </trkpt>
      <trkpt lat="49.59212" lon="3.43016">
        <ele>75.56</ele>
        <time>2017-11-06T12:58:16.000Z</time>
      </trkpt>
      <trkpt lat="49.59211" lon="3.4302">
        <ele>75.42</ele>
        <time>2017-11-06T12:58:26.000Z</time>
      </trkpt>
      <trkpt lat="49.59211" lon="3.43029">
        <ele>74.44</ele>
        <time>2017-11-06T12:58:36.000Z</time>
      </trkpt>
      <trkpt lat="49.59208" lon="3.4302">
        <ele>73.29</ele>
        <time>2017-11-06T12:58:46.000Z</time>
      </trkpt>
      <trkpt lat="49.59209" lon="3.43015">
        <ele>71.67</ele>
        <time>2017-11-06T12:58:56.000Z</time>
      </trkpt>
      <trkpt lat="49.59199" lon="3.4302">
        <ele>70.61</ele>
        <time>2017-11-06T12:59:06.000Z</time>
      </trkpt>
      <trkpt lat="49.59203" lon="3.43019">
        <ele>71.86</ele>
        <time>2017-11-06T12:59:16.000Z</time>
      </trkpt>
      <trkpt lat="49.59208" lon="3.43027">
        <ele>74.53</ele>
        <time>2017-11-06T12:59:26.000Z</time>
      </trkpt>
      <trkpt lat="49.59213" lon="3.4303">
        <ele>77.18</ele>
        <time>2017-11-06T12:59:36.000Z</time>
      </trkpt>
      <trkpt lat="49.59213" lon="3.43032">
        <ele>78.02</ele>
        <time>2017-11-06T12:59:46.000Z</time>
      </trkpt>
      <trkpt lat="49.59215" lon="3.4303">
        <ele>79.34</ele>
        <time>2017-11-06T12:59:56.000Z</time>
      </trkpt>
      <trkpt lat="49.59214" lon="3.43027">
        <ele>79.12</ele>
        <time>2017-11-06T13:00:06.000Z</time>
      </trkpt>
      <trkpt lat="49.59213" lon="3.4302">
        <ele>79.37</ele>
        <time>2017-11-06T13:00:16.000Z</time>
      </trkpt>
      <trkpt lat="49.59214" lon="3.4303">
        <ele>79.74</ele>
        <time>2017-11-06T13:00:26.000Z</time>
      </trkpt>
      <trkpt lat="49.59214" lon="3.43032">
        <ele>79.71</ele>
        <time>2017-11-06T13:00:36.000Z</time>
      </trkpt>
      <trkpt lat="49.59213" lon="3.43033">
        <ele>79.11</ele>
        <time>2017-11-06T13:00:46.000Z</time>
      </trkpt>
      <trkpt lat="49.59213" lon="3.43032">
        <ele>78.74</ele>
        <time>2017-11-06T13:00:59.000Z</time>
      </trkpt>
      <trkpt lat="49.59213" lon="3.4303">
        <ele>78.32</ele>
        <time>2017-11-06T13:01:18.000Z</time>
      </trkpt>
      <trkpt lat="49.59212" lon="3.43029">
        <ele>77.72</ele>
        <time>2017-11-06T13:01:47.000Z</time>
      </trkpt>
      <trkpt lat="49.59213" lon="3.43028">
        <ele>77.45</ele>
        <time>2017-11-06T13:01:57.000Z</time>
      </trkpt>
      <trkpt lat="49.59213" lon="3.43026">
        <ele>76.95</ele>
        <time>2017-11-06T13:02:07.000Z</time>
      </trkpt>
      <trkpt lat="49.59213" lon="3.43025">
        <ele>76.41</ele>
        <time>2017-11-06T13:02:21.000Z</time>
      </trkpt>
      <trkpt lat="49.59212" lon="3.43024">
        <ele>76.15</ele>
        <time>2017-11-06T13:02:31.000Z</time>
      </trkpt>
      <trkpt lat="49.59212" lon="3.43023">
        <ele>74.66</ele>
        <time>2017-11-06T13:02:54.000Z</time>
      </trkpt>
      <trkpt lat="49.5921" lon="3.43024">
        <ele>74.17</ele>
        <time>2017-11-06T13:03:04.000Z</time>
      </trkpt>
      <trkpt lat="49.59212" lon="3.43025">
        <ele>74.25</ele>
        <time>2017-11-06T13:03:14.000Z</time>
      </trkpt>
      <trkpt lat="49.59212" lon="3.43024">
        <ele>74.79</ele>
        <time>2017-11-06T13:03:32.000Z</time>
      </trkpt>
      <trkpt lat="49.59213" lon="3.43023">
        <ele>75.15</ele>
        <time>2017-11-06T13:03:42.000Z</time>
      </trkpt>
      <trkpt lat="49.59214" lon="3.43023">
        <ele>75.21</ele>
        <time>2017-11-06T13:03:52.000Z</time>
      </trkpt>
      <trkpt lat="49.59215" lon="3.43023">
        <ele>75.3</ele>
        <time>2017-11-06T13:04:03.000Z</time>
      </trkpt>
      <trkpt lat="49.59216" lon="3.43023">
        <ele>75.39</ele>
        <time>2017-11-06T13:04:13.000Z</time>
      </trkpt>
      <trkpt lat="49.59217" lon="3.43023">
        <ele>75.81</ele>
        <time>2017-11-06T13:04:28.000Z</time>
      </trkpt>
      <trkpt lat="49.59215" lon="3.43021">
        <ele>77.71</ele>
        <time>2017-11-06T13:05:02.000Z</time>
      </trkpt>
      <trkpt lat="49.59214" lon="3.43016">
        <ele>79.58</ele>
        <time>2017-11-06T13:05:12.000Z</time>
      </trkpt>
      <trkpt lat="49.5921" lon="3.43008">
        <ele>82.05</ele>
        <time>2017-11-06T13:05:22.000Z</time>
      </trkpt>
      <trkpt lat="49.59206" lon="3.43001">
        <ele>82.98</ele>
        <time>2017-11-06T13:05:32.000Z</time>
      </trkpt>
      <trkpt lat="49.59199" lon="3.42989">
        <ele>82.85</ele>
        <time>2017-11-06T13:05:42.000Z</time>
      </trkpt>
      <trkpt lat="49.59194" lon="3.42978">
        <ele>82.26</ele>
        <time>2017-11-06T13:05:52.000Z</time>
      </trkpt>
      <trkpt lat="49.59183" lon="3.42974">
        <ele>81.09</ele>
        <time>2017-11-06T13:06:02.000Z</time>
      </trkpt>
      <trkpt lat="49.59175" lon="3.42967">
        <ele>81.14</ele>
        <time>2017-11-06T13:06:12.000Z</time>
      </trkpt>
      <trkpt lat="49.59159" lon="3.42969">
        <ele>81.61</ele>
        <time>2017-11-06T13:06:22.000Z</time>
      </trkpt>
      <trkpt lat="49.59147" lon="3.4296">
        <ele>81.69</ele>
        <time>2017-11-06T13:06:32.000Z</time>
      </trkpt>
      <trkpt lat="49.59135" lon="3.42952">
        <ele>82.16</ele>
        <time>2017-11-06T13:06:42.000Z</time>
      </trkpt>
      <trkpt lat="49.59129" lon="3.42941">
        <ele>83.32</ele>
        <time>2017-11-06T13:06:52.000Z</time>
      </trkpt>
      <trkpt lat="49.59116" lon="3.42938">
        <ele>86.15</ele>
        <time>2017-11-06T13:07:02.000Z</time>
      </trkpt>
      <trkpt lat="49.59101" lon="3.42937">
        <ele>89.26</ele>
        <time>2017-11-06T13:07:12.000Z</time>
      </trkpt>
      <trkpt lat="49.5909" lon="3.42948">
        <ele>93.8</ele>
        <time>2017-11-06T13:07:22.000Z</time>
      </trkpt>
      <trkpt lat="49.59084" lon="3.42958">
        <ele>97.98</ele>
        <time>2017-11-06T13:07:32.000Z</time>
      </trkpt>
      <trkpt lat="49.59072" lon="3.42973">
        <ele>101.17</ele>
        <time>2017-11-06T13:07:42.000Z</time>
      </trkpt>
      <trkpt lat="49.59065" lon="3.42992">
        <ele>103.82</ele>
        <time>2017-11-06T13:07:52.000Z</time>
      </trkpt>
      <trkpt lat="49.59057" lon="3.43003">
        <ele>106.16</ele>
        <time>2017-11-06T13:08:02.000Z</time>
      </trkpt>
      <trkpt lat="49.59045" lon="3.43014">
        <ele>108.23</ele>
        <time>2017-11-06T13:08:12.000Z</time>
      </trkpt>
      <trkpt lat="49.59037" lon="3.43021">
        <ele>109.75</ele>
        <time>2017-11-06T13:08:22.000Z</time>
      </trkpt>
      <trkpt lat="49.59031" lon="3.43026">
        <ele>110.39</ele>
        <time>2017-11-06T13:08:32.000Z</time>
      </trkpt>
      <trkpt lat="49.5903" lon="3.43026">
        <ele>110.67</ele>
        <time>2017-11-06T13:08:42.000Z</time>
      </trkpt>
      <trkpt lat="49.59028" lon="3.43026">
        <ele>111.29</ele>
        <time>2017-11-06T13:08:52.000Z</time>
      </trkpt>
      <trkpt lat="49.5902" lon="3.43036">
        <ele>112.56</ele>
        <time>2017-11-06T13:09:02.000Z</time>
      </trkpt>
      <trkpt lat="49.59012" lon="3.43043">
        <ele>113.12</ele>
        <time>2017-11-06T13:09:12.000Z</time>
      </trkpt>
      <trkpt lat="49.59001" lon="3.43054">
        <ele>113.34</ele>
        <time>2017-11-06T13:09:22.000Z</time>
      </trkpt>
      <trkpt lat="49.58988" lon="3.43068">
        <ele>113.59</ele>
        <time>2017-11-06T13:09:32.000Z</time>
      </trkpt>
      <trkpt lat="49.58976" lon="3.43081">
        <ele>113.79</ele>
        <time>2017-11-06T13:09:42.000Z</time>
      </trkpt>
      <trkpt lat="49.58965" lon="3.43096">
        <ele>113.84</ele>
        <time>2017-11-06T13:09:52.000Z</time>
      </trkpt>
      <trkpt lat="49.58956" lon="3.43114">
        <ele>113.82</ele>
        <time>2017-11-06T13:10:02.000Z</time>
      </trkpt>
      <trkpt lat="49.58946" lon="3.43127">
        <ele>113.56</ele>
        <time>2017-11-06T13:10:12.000Z</time>
      </trkpt>
      <trkpt lat="49.58934" lon="3.43145">
        <ele>114.01</ele>
        <time>2017-11-06T13:10:22.000Z</time>
      </trkpt>
      <trkpt lat="49.58926" lon="3.43161">
        <ele>114.1</ele>
        <time>2017-11-06T13:10:32.000Z</time>
      </trkpt>
      <trkpt lat="49.58917" lon="3.43176">
        <ele>114.08</ele>
        <time>2017-11-06T13:10:42.000Z</time>
      </trkpt>
      <trkpt lat="49.58908" lon="3.43192">
        <ele>114.29</ele>
        <time>2017-11-06T13:10:52.000Z</time>
      </trkpt>
      <trkpt lat="49.58897" lon="3.43212">
        <ele>114.65</ele>
        <time>2017-11-06T13:11:02.000Z</time>
      </trkpt>
      <trkpt lat="49.5888" lon="3.43232">
        <ele>116.24</ele>
        <time>2017-11-06T13:11:12.000Z</time>
      </trkpt>
      <trkpt lat="49.58871" lon="3.43251">
        <ele>118.19</ele>
        <time>2017-11-06T13:11:22.000Z</time>
      </trkpt>
      <trkpt lat="49.58867" lon="3.43263">
        <ele>119.62</ele>
        <time>2017-11-06T13:11:32.000Z</time>
      </trkpt>
      <trkpt lat="49.58855" lon="3.4328">
        <ele>119.43</ele>
        <time>2017-11-06T13:11:42.000Z</time>
      </trkpt>
      <trkpt lat="49.58846" lon="3.43288">
        <ele>118.92</ele>
        <time>2017-11-06T13:11:52.000Z</time>
      </trkpt>
      <trkpt lat="49.5883" lon="3.43302">
        <ele>118.17</ele>
        <time>2017-11-06T13:12:02.000Z</time>
      </trkpt>
      <trkpt lat="49.5882" lon="3.43314">
        <ele>117.37</ele>
        <time>2017-11-06T13:12:12.000Z</time>
      </trkpt>
      <trkpt lat="49.58808" lon="3.43327">
        <ele>116.13</ele>
        <time>2017-11-06T13:12:22.000Z</time>
      </trkpt>
      <trkpt lat="49.588" lon="3.43337">
        <ele>114.41</ele>
        <time>2017-11-06T13:12:32.000Z</time>
      </trkpt>
      <trkpt lat="49.58785" lon="3.4335">
        <ele>114.02</ele>
        <time>2017-11-06T13:12:42.000Z</time>
      </trkpt>
      <trkpt lat="49.58774" lon="3.4336">
        <ele>114.86</ele>
        <time>2017-11-06T13:12:52.000Z</time>
      </trkpt>
      <trkpt lat="49.5876" lon="3.43372">
        <ele>115.96</ele>
        <time>2017-11-06T13:13:02.000Z</time>
      </trkpt>
      <trkpt lat="49.58748" lon="3.43387">
        <ele>116.63</ele>
        <time>2017-11-06T13:13:12.000Z</time>
      </trkpt>
      <trkpt lat="49.58734" lon="3.43401">
        <ele>117.1</ele>
        <time>2017-11-06T13:13:22.000Z</time>
      </trkpt>
      <trkpt lat="49.58726" lon="3.43405">
        <ele>117.33</ele>
        <time>2017-11-06T13:13:32.000Z</time>
      </trkpt>
      <trkpt lat="49.58709" lon="3.43408">
        <ele>117.7</ele>
        <time>2017-11-06T13:13:42.000Z</time>
      </trkpt>
      <trkpt lat="49.58695" lon="3.43414">
        <ele>117.17</ele>
        <time>2017-11-06T13:13:52.000Z</time>
      </trkpt>
      <trkpt lat="49.5868" lon="3.43419">
        <ele>116.82</ele>
        <time>2017-11-06T13:14:02.000Z</time>
      </trkpt>
      <trkpt lat="49.58669" lon="3.43418">
        <ele>117.61</ele>
        <time>2017-11-06T13:14:12.000Z</time>
      </trkpt>
      <trkpt lat="49.58659" lon="3.43417">
        <ele>117.87</ele>
        <time>2017-11-06T13:14:22.000Z</time>
      </trkpt>
      <trkpt lat="49.58647" lon="3.43416">
        <ele>117.91</ele>
        <time>2017-11-06T13:14:32.000Z</time>
      </trkpt>
      <trkpt lat="49.58637" lon="3.43415">
        <ele>118.66</ele>
        <time>2017-11-06T13:14:42.000Z</time>
      </trkpt>
      <trkpt lat="49.58625" lon="3.43415">
        <ele>118.89</ele>
        <time>2017-11-06T13:14:52.000Z</time>
      </trkpt>
      <trkpt lat="49.58611" lon="3.43416">
        <ele>117.06</ele>
        <time>2017-11-06T13:15:02.000Z</time>
      </trkpt>
      <trkpt lat="49.58602" lon="3.43412">
        <ele>116.74</ele>
        <time>2017-11-06T13:15:12.000Z</time>
      </trkpt>
      <trkpt lat="49.5859" lon="3.43419">
        <ele>117.08</ele>
        <time>2017-11-06T13:15:22.000Z</time>
      </trkpt>
      <trkpt lat="49.58573" lon="3.43417">
        <ele>117.3</ele>
        <time>2017-11-06T13:15:32.000Z</time>
      </trkpt>
      <trkpt lat="49.58574" lon="3.43418">
        <ele>117.67</ele>
        <time>2017-11-06T13:15:50.000Z</time>
      </trkpt>
      <trkpt lat="49.58576" lon="3.43408">
        <ele>118.56</ele>
        <time>2017-11-06T13:16:00.000Z</time>
      </trkpt>
      <trkpt lat="49.58578" lon="3.43391">
        <ele>119.2</ele>
        <time>2017-11-06T13:16:10.000Z</time>
      </trkpt>
      <trkpt lat="49.58583" lon="3.4337">
        <ele>118.91</ele>
        <time>2017-11-06T13:16:20.000Z</time>
      </trkpt>
      <trkpt lat="49.58586" lon="3.43356">
        <ele>117.4</ele>
        <time>2017-11-06T13:16:30.000Z</time>
      </trkpt>
      <trkpt lat="49.58583" lon="3.43354">
        <ele>115.93</ele>
        <time>2017-11-06T13:16:40.000Z</time>
      </trkpt>
      <trkpt lat="49.58586" lon="3.43343">
        <ele>116.3</ele>
        <time>2017-11-06T13:16:50.000Z</time>
      </trkpt>
      <trkpt lat="49.5859" lon="3.43326">
        <ele>117.52</ele>
        <time>2017-11-06T13:17:00.000Z</time>
      </trkpt>
      <trkpt lat="49.58588" lon="3.43315">
        <ele>119.82</ele>
        <time>2017-11-06T13:17:10.000Z</time>
      </trkpt>
      <trkpt lat="49.58588" lon="3.43305">
        <ele>121.6</ele>
        <time>2017-11-06T13:17:20.000Z</time>
      </trkpt>
      <trkpt lat="49.58597" lon="3.43291">
        <ele>122.14</ele>
        <time>2017-11-06T13:17:30.000Z</time>
      </trkpt>
      <trkpt lat="49.586" lon="3.43274">
        <ele>121.92</ele>
        <time>2017-11-06T13:17:40.000Z</time>
      </trkpt>
      <trkpt lat="49.58591" lon="3.43267">
        <ele>121.58</ele>
        <time>2017-11-06T13:17:50.000Z</time>
      </trkpt>
      <trkpt lat="49.58584" lon="3.43262">
        <ele>121.76</ele>
        <time>2017-11-06T13:18:00.000Z</time>
      </trkpt>
      <trkpt lat="49.58576" lon="3.43261">
        <ele>122.12</ele>
        <time>2017-11-06T13:18:10.000Z</time>
      </trkpt>
      <trkpt lat="49.58566" lon="3.43259">
        <ele>121.88</ele>
        <time>2017-11-06T13:18:20.000Z</time>
      </trkpt>
      <trkpt lat="49.58558" lon="3.43255">
        <ele>120.68</ele>
        <time>2017-11-06T13:18:30.000Z</time>
      </trkpt>
      <trkpt lat="49.58548" lon="3.43251">
        <ele>119.33</ele>
        <time>2017-11-06T13:18:40.000Z</time>
      </trkpt>
      <trkpt lat="49.58537" lon="3.43246">
        <ele>118.07</ele>
        <time>2017-11-06T13:18:50.000Z</time>
      </trkpt>
      <trkpt lat="49.58525" lon="3.43241">
        <ele>117.4</ele>
        <time>2017-11-06T13:19:00.000Z</time>
      </trkpt>
      <trkpt lat="49.58515" lon="3.43238">
        <ele>116.92</ele>
        <time>2017-11-06T13:19:09.999Z</time>
      </trkpt>
      <trkpt lat="49.58504" lon="3.4324">
        <ele>117.1</ele>
        <time>2017-11-06T13:19:19.999Z</time>
      </trkpt>
      <trkpt lat="49.58489" lon="3.43244">
        <ele>118.88</ele>
        <time>2017-11-06T13:19:29.999Z</time>
      </trkpt>
      <trkpt lat="49.5848" lon="3.43246">
        <ele>121.55</ele>
        <time>2017-11-06T13:19:39.999Z</time>
      </trkpt>
      <trkpt lat="49.58472" lon="3.43249">
        <ele>125.1</ele>
        <time>2017-11-06T13:19:49.999Z</time>
      </trkpt>
      <trkpt lat="49.58462" lon="3.43251">
        <ele>128.91</ele>
        <time>2017-11-06T13:19:59.999Z</time>
      </trkpt>
      <trkpt lat="49.58453" lon="3.43255">
        <ele>132.21</ele>
        <time>2017-11-06T13:20:09.999Z</time>
      </trkpt>
      <trkpt lat="49.58439" lon="3.43261">
        <ele>135.53</ele>
        <time>2017-11-06T13:20:19.999Z</time>
      </trkpt>
      <trkpt lat="49.58427" lon="3.43273">
        <ele>138.61</ele>
        <time>2017-11-06T13:20:29.999Z</time>
      </trkpt>
      <trkpt lat="49.58422" lon="3.43275">
        <ele>140.97</ele>
        <time>2017-11-06T13:20:39.999Z</time>
      </trkpt>
      <trkpt lat="49.58413" lon="3.4328">
        <ele>143.07</ele>
        <time>2017-11-06T13:20:49.999Z</time>
      </trkpt>
      <trkpt lat="49.58402" lon="3.43288">
        <ele>144.67</ele>
        <time>2017-11-06T13:20:59.999Z</time>
      </trkpt>
      <trkpt lat="49.58391" lon="3.43293">
        <ele>145.91</ele>
        <time>2017-11-06T13:21:09.999Z</time>
      </trkpt>
      <trkpt lat="49.58378" lon="3.43301">
        <ele>146.89</ele>
        <time>2017-11-06T13:21:19.999Z</time>
      </trkpt>
      <trkpt lat="49.5837" lon="3.43305">
        <ele>147.73</ele>
        <time>2017-11-06T13:21:29.999Z</time>
      </trkpt>
      <trkpt lat="49.58362" lon="3.43314">
        <ele>148.86</ele>
        <time>2017-11-06T13:21:39.999Z</time>
      </trkpt>
      <trkpt lat="49.58352" lon="3.43328">
        <ele>150.31</ele>
        <time>2017-11-06T13:21:49.999Z</time>
      </trkpt>
      <trkpt lat="49.58338" lon="3.43348">
        <ele>151.33</ele>
        <time>2017-11-06T13:21:59.999Z</time>
      </trkpt>
      <trkpt lat="49.58328" lon="3.43362">
        <ele>152.11</ele>
        <time>2017-11-06T13:22:09.999Z</time>
      </trkpt>
      <trkpt lat="49.58321" lon="3.43371">
        <ele>152.46</ele>
        <time>2017-11-06T13:22:19.999Z</time>
      </trkpt>
      <trkpt lat="49.58318" lon="3.4337">
        <ele>152.23</ele>
        <time>2017-11-06T13:22:29.999Z</time>
      </trkpt>
      <trkpt lat="49.58317" lon="3.4337">
        <ele>151.98</ele>
        <time>2017-11-06T13:22:41.999Z</time>
      </trkpt>
      <trkpt lat="49.58316" lon="3.43371">
        <ele>150.59</ele>
        <time>2017-11-06T13:23:25.999Z</time>
      </trkpt>
      <trkpt lat="49.5831" lon="3.43369">
        <ele>149.01</ele>
        <time>2017-11-06T13:23:35.999Z</time>
      </trkpt>
      <trkpt lat="49.58308" lon="3.43371">
        <ele>146.81</ele>
        <time>2017-11-06T13:23:45.999Z</time>
      </trkpt>
      <trkpt lat="49.58309" lon="3.4337">
        <ele>145.26</ele>
        <time>2017-11-06T13:24:12.999Z</time>
      </trkpt>
      <trkpt lat="49.58311" lon="3.43371">
        <ele>144.32</ele>
        <time>2017-11-06T13:24:22.999Z</time>
      </trkpt>
      <trkpt lat="49.5831" lon="3.43375">
        <ele>142.59</ele>
        <time>2017-11-06T13:24:32.999Z</time>
      </trkpt>
      <trkpt lat="49.58306" lon="3.43384">
        <ele>142.64</ele>
        <time>2017-11-06T13:24:42.999Z</time>
      </trkpt>
      <trkpt lat="49.58299" lon="3.43406">
        <ele>143.01</ele>
        <time>2017-11-06T13:24:52.999Z</time>
      </trkpt>
      <trkpt lat="49.58293" lon="3.43423">
        <ele>142.89</ele>
        <time>2017-11-06T13:25:02.999Z</time>
      </trkpt>
      <trkpt lat="49.5829" lon="3.43434">
        <ele>142.6</ele>
        <time>2017-11-06T13:25:12.999Z</time>
      </trkpt>
      <trkpt lat="49.58293" lon="3.43454">
        <ele>140.65</ele>
        <time>2017-11-06T13:25:22.999Z</time>
      </trkpt>
      <trkpt lat="49.58295" lon="3.4346">
        <ele>136.88</ele>
        <time>2017-11-06T13:25:32.999Z</time>
      </trkpt>
      <trkpt lat="49.58303" lon="3.43463">
        <ele>132.02</ele>
        <time>2017-11-06T13:25:42.999Z</time>
      </trkpt>
      <trkpt lat="49.58312" lon="3.43464">
        <ele>128.54</ele>
        <time>2017-11-06T13:25:52.999Z</time>
      </trkpt>
      <trkpt lat="49.58318" lon="3.4347">
        <ele>125.17</ele>
        <time>2017-11-06T13:26:02.999Z</time>
      </trkpt>
      <trkpt lat="49.58326" lon="3.43473">
        <ele>120.73</ele>
        <time>2017-11-06T13:26:12.999Z</time>
      </trkpt>
      <trkpt lat="49.58335" lon="3.43476">
        <ele>114.56</ele>
        <time>2017-11-06T13:26:22.999Z</time>
      </trkpt>
      <trkpt lat="49.58346" lon="3.43489">
        <ele>110.33</ele>
        <time>2017-11-06T13:26:32.999Z</time>
      </trkpt>
      <trkpt lat="49.58356" lon="3.43503">
        <ele>108.87</ele>
        <time>2017-11-06T13:26:42.999Z</time>
      </trkpt>
      <trkpt lat="49.58359" lon="3.43511">
        <ele>108.87</ele>
        <time>2017-11-06T13:26:52.999Z</time>
      </trkpt>
      <trkpt lat="49.58356" lon="3.43512">
        <ele>108.88</ele>
        <time>2017-11-06T13:27:02.999Z</time>
      </trkpt>
      <trkpt lat="49.58357" lon="3.43518">
        <ele>108.43</ele>
        <time>2017-11-06T13:27:12.999Z</time>
      </trkpt>
      <trkpt lat="49.58358" lon="3.4352">
        <ele>108.19</ele>
        <time>2017-11-06T13:27:22.999Z</time>
      </trkpt>
      <trkpt lat="49.5836" lon="3.43525">
        <ele>108.16</ele>
        <time>2017-11-06T13:27:32.999Z</time>
      </trkpt>
      <trkpt lat="49.58361" lon="3.43527">
        <ele>108.37</ele>
        <time>2017-11-06T13:27:48.999Z</time>
      </trkpt>
      <trkpt lat="49.5836" lon="3.43525">
        <ele>108.65</ele>
        <time>2017-11-06T13:27:58.999Z</time>
      </trkpt>
      <trkpt lat="49.58359" lon="3.43524">
        <ele>109.11</ele>
        <time>2017-11-06T13:28:08.999Z</time>
      </trkpt>
      <trkpt lat="49.58357" lon="3.43528">
        <ele>110.03</ele>
        <time>2017-11-06T13:28:18.999Z</time>
      </trkpt>
      <trkpt lat="49.58357" lon="3.43531">
        <ele>110.63</ele>
        <time>2017-11-06T13:28:28.999Z</time>
      </trkpt>
      <trkpt lat="49.58356" lon="3.43534">
        <ele>110.8</ele>
        <time>2017-11-06T13:28:38.999Z</time>
      </trkpt>
      <trkpt lat="49.58355" lon="3.43535">
        <ele>110.98</ele>
        <time>2017-11-06T13:28:52.999Z</time>
      </trkpt>
      <trkpt lat="49.58353" lon="3.43538">
        <ele>111.76</ele>
        <time>2017-11-06T13:29:02.999Z</time>
      </trkpt>
      <trkpt lat="49.58354" lon="3.43545">
        <ele>112.42</ele>
        <time>2017-11-06T13:29:12.999Z</time>
      </trkpt>
      <trkpt lat="49.58355" lon="3.43556">
        <ele>113.17</ele>
        <time>2017-11-06T13:29:22.999Z</time>
      </trkpt>
      <trkpt lat="49.58356" lon="3.43558">
        <ele>113.46</ele>
        <time>2017-11-06T13:29:32.999Z</time>
      </trkpt>
      <trkpt lat="49.58356" lon="3.4356">
        <ele>114.16</ele>
        <time>2017-11-06T13:29:44.999Z</time>
      </trkpt>
      <trkpt lat="49.58356" lon="3.43563">
        <ele>115.76</ele>
        <time>2017-11-06T13:29:54.999Z</time>
      </trkpt>
      <trkpt lat="49.58354" lon="3.43563">
        <ele>118.73</ele>
        <time>2017-11-06T13:30:04.999Z</time>
      </trkpt>
      <trkpt lat="49.58348" lon="3.43577">
        <ele>121.77</ele>
        <time>2017-11-06T13:30:14.999Z</time>
      </trkpt>
      <trkpt lat="49.5834" lon="3.43591">
        <ele>123.79</ele>
        <time>2017-11-06T13:30:24.999Z</time>
      </trkpt>
      <trkpt lat="49.58335" lon="3.43606">
        <ele>125.37</ele>
        <time>2017-11-06T13:30:34.999Z</time>
      </trkpt>
      <trkpt lat="49.58328" lon="3.43611">
        <ele>126.36</ele>
        <time>2017-11-06T13:30:44.999Z</time>
      </trkpt>
      <trkpt lat="49.58322" lon="3.43615">
        <ele>127.85</ele>
        <time>2017-11-06T13:30:54.999Z</time>
      </trkpt>
      <trkpt lat="49.58312" lon="3.43619">
        <ele>130.85</ele>
        <time>2017-11-06T13:31:04.999Z</time>
      </trkpt>
      <trkpt lat="49.58312" lon="3.43622">
        <ele>134.97</ele>
        <time>2017-11-06T13:31:14.999Z</time>
      </trkpt>
      <trkpt lat="49.58302" lon="3.43624">
        <ele>139.9</ele>
        <time>2017-11-06T13:31:24.999Z</time>
      </trkpt>
      <trkpt lat="49.58292" lon="3.4362">
        <ele>144</ele>
        <time>2017-11-06T13:31:34.999Z</time>
      </trkpt>
      <trkpt lat="49.58284" lon="3.43618">
        <ele>146.77</ele>
        <time>2017-11-06T13:31:44.999Z</time>
      </trkpt>
      <trkpt lat="49.58274" lon="3.43615">
        <ele>149.68</ele>
        <time>2017-11-06T13:31:54.999Z</time>
      </trkpt>
      <trkpt lat="49.58273" lon="3.43614">
        <ele>151.43</ele>
        <time>2017-11-06T13:32:05.999Z</time>
      </trkpt>
      <trkpt lat="49.58274" lon="3.43614">
        <ele>153.65</ele>
        <time>2017-11-06T13:32:15.999Z</time>
      </trkpt>
      <trkpt lat="49.58273" lon="3.43613">
        <ele>155.73</ele>
        <time>2017-11-06T13:32:28.999Z</time>
      </trkpt>
      <trkpt lat="49.58272" lon="3.43612">
        <ele>156.48</ele>
        <time>2017-11-06T13:32:38.999Z</time>
      </trkpt>
      <trkpt lat="49.5827" lon="3.43612">
        <ele>157.91</ele>
        <time>2017-11-06T13:32:48.999Z</time>
      </trkpt>
      <trkpt lat="49.58268" lon="3.43611">
        <ele>158.64</ele>
        <time>2017-11-06T13:32:58.999Z</time>
      </trkpt>
      <trkpt lat="49.58259" lon="3.43609">
        <ele>160.04</ele>
        <time>2017-11-06T13:33:08.999Z</time>
      </trkpt>
      <trkpt lat="49.5825" lon="3.43605">
        <ele>162.41</ele>
        <time>2017-11-06T13:33:18.999Z</time>
      </trkpt>
      <trkpt lat="49.58245" lon="3.43604">
        <ele>165.52</ele>
        <time>2017-11-06T13:33:28.999Z</time>
      </trkpt>
      <trkpt lat="49.58242" lon="3.43605">
        <ele>167.4</ele>
        <time>2017-11-06T13:33:38.999Z</time>
      </trkpt>
      <trkpt lat="49.5824" lon="3.43607">
        <ele>169.25</ele>
        <time>2017-11-06T13:33:48.999Z</time>
      </trkpt>
      <trkpt lat="49.58233" lon="3.4361">
        <ele>171.67</ele>
        <time>2017-11-06T13:33:58.999Z</time>
      </trkpt>
      <trkpt lat="49.58229" lon="3.43608">
        <ele>172.78</ele>
        <time>2017-11-06T13:34:08.999Z</time>
      </trkpt>
      <trkpt lat="49.58226" lon="3.43605">
        <ele>172.74</ele>
        <time>2017-11-06T13:34:18.999Z</time>
      </trkpt>
      <trkpt lat="49.58222" lon="3.43602">
        <ele>172.47</ele>
        <time>2017-11-06T13:34:28.999Z</time>
      </trkpt>
      <trkpt lat="49.5822" lon="3.43599">
        <ele>172.12</ele>
        <time>2017-11-06T13:34:38.999Z</time>
      </trkpt>
      <trkpt lat="49.5822" lon="3.43597">
        <ele>172.03</ele>
        <time>2017-11-06T13:34:48.999Z</time>
      </trkpt>
      <trkpt lat="49.58219" lon="3.43594">
        <ele>171.83</ele>
        <time>2017-11-06T13:34:58.999Z</time>
      </trkpt>
      <trkpt lat="49.58216" lon="3.43582">
        <ele>171.63</ele>
        <time>2017-11-06T13:35:08.999Z</time>
      </trkpt>
      <trkpt lat="49.58217" lon="3.43567">
        <ele>170.67</ele>
        <time>2017-11-06T13:35:18.999Z</time>
      </trkpt>
      <trkpt lat="49.58217" lon="3.43555">
        <ele>169.49</ele>
        <time>2017-11-06T13:35:28.999Z</time>
      </trkpt>
      <trkpt lat="49.58216" lon="3.43544">
        <ele>168.26</ele>
        <time>2017-11-06T13:35:38.999Z</time>
      </trkpt>
      <trkpt lat="49.58212" lon="3.43541">
        <ele>168.29</ele>
        <time>2017-11-06T13:35:48.999Z</time>
      </trkpt>
      <trkpt lat="49.58204" lon="3.43534">
        <ele>169.26</ele>
        <time>2017-11-06T13:35:58.999Z</time>
      </trkpt>
      <trkpt lat="49.58193" lon="3.43531">
        <ele>170.92</ele>
        <time>2017-11-06T13:36:08.999Z</time>
      </trkpt>
      <trkpt lat="49.58187" lon="3.43526">
        <ele>171.87</ele>
        <time>2017-11-06T13:36:18.999Z</time>
      </trkpt>
      <trkpt lat="49.5818" lon="3.43519">
        <ele>172.65</ele>
        <time>2017-11-06T13:36:28.999Z</time>
      </trkpt>
      <trkpt lat="49.58172" lon="3.43518">
        <ele>173.45</ele>
        <time>2017-11-06T13:36:38.999Z</time>
      </trkpt>
      <trkpt lat="49.58162" lon="3.43515">
        <ele>174.17</ele>
        <time>2017-11-06T13:36:48.999Z</time>
      </trkpt>
      <trkpt lat="49.58152" lon="3.43507">
        <ele>174.59</ele>
        <time>2017-11-06T13:36:58.999Z</time>
      </trkpt>
      <trkpt lat="49.58142" lon="3.43499">
        <ele>176</ele>
        <time>2017-11-06T13:37:08.999Z</time>
      </trkpt>
      <trkpt lat="49.58135" lon="3.43492">
        <ele>177.99</ele>
        <time>2017-11-06T13:37:18.999Z</time>
      </trkpt>
      <trkpt lat="49.58122" lon="3.43483">
        <ele>179.64</ele>
        <time>2017-11-06T13:37:28.999Z</time>
      </trkpt>
      <trkpt lat="49.58112" lon="3.43478">
        <ele>180.91</ele>
        <time>2017-11-06T13:37:38.999Z</time>
      </trkpt>
      <trkpt lat="49.5811" lon="3.43476">
        <ele>181.38</ele>
        <time>2017-11-06T13:37:48.999Z</time>
      </trkpt>
      <trkpt lat="49.58102" lon="3.43463">
        <ele>183.23</ele>
        <time>2017-11-06T13:37:58.999Z</time>
      </trkpt>
      <trkpt lat="49.58093" lon="3.43455">
        <ele>185.48</ele>
        <time>2017-11-06T13:38:08.999Z</time>
      </trkpt>
      <trkpt lat="49.58083" lon="3.43448">
        <ele>187.5</ele>
        <time>2017-11-06T13:38:18.999Z</time>
      </trkpt>
      <trkpt lat="49.58076" lon="3.43439">
        <ele>189.06</ele>
        <time>2017-11-06T13:38:28.999Z</time>
      </trkpt>
      <trkpt lat="49.58064" lon="3.43433">
        <ele>190.42</ele>
        <time>2017-11-06T13:38:38.999Z</time>
      </trkpt>
      <trkpt lat="49.58053" lon="3.43427">
        <ele>190.74</ele>
        <time>2017-11-06T13:38:48.999Z</time>
      </trkpt>
      <trkpt lat="49.58044" lon="3.43421">
        <ele>191.19</ele>
        <time>2017-11-06T13:38:58.999Z</time>
      </trkpt>
      <trkpt lat="49.58033" lon="3.43417">
        <ele>191.84</ele>
        <time>2017-11-06T13:39:08.999Z</time>
      </trkpt>
      <trkpt lat="49.58028" lon="3.43413">
        <ele>192.47</ele>
        <time>2017-11-06T13:39:18.999Z</time>
      </trkpt>
      <trkpt lat="49.58025" lon="3.43412">
        <ele>192.54</ele>
        <time>2017-11-06T13:39:28.999Z</time>
      </trkpt>
      <trkpt lat="49.5802" lon="3.4341">
        <ele>193.07</ele>
        <time>2017-11-06T13:39:38.999Z</time>
      </trkpt>
      <trkpt lat="49.58022" lon="3.43411">
        <ele>193.57</ele>
        <time>2017-11-06T13:39:48.999Z</time>
      </trkpt>
      <trkpt lat="49.58018" lon="3.43405">
        <ele>194.24</ele>
        <time>2017-11-06T13:39:58.999Z</time>
      </trkpt>
      <trkpt lat="49.58012" lon="3.43412">
        <ele>194.18</ele>
        <time>2017-11-06T13:40:08.999Z</time>
      </trkpt>
      <trkpt lat="49.58014" lon="3.43412">
        <ele>193.91</ele>
        <time>2017-11-06T13:40:19.999Z</time>
      </trkpt>
      <trkpt lat="49.58006" lon="3.43414">
        <ele>194.03</ele>
        <time>2017-11-06T13:40:29.999Z</time>
      </trkpt>
      <trkpt lat="49.58006" lon="3.43413">
        <ele>193.81</ele>
        <time>2017-11-06T13:40:53.999Z</time>
      </trkpt>
      <trkpt lat="49.58005" lon="3.43413">
        <ele>193.52</ele>
        <time>2017-11-06T13:41:08.999Z</time>
      </trkpt>
      <trkpt lat="49.58005" lon="3.43411">
        <ele>192.6</ele>
        <time>2017-11-06T13:41:25.999Z</time>
      </trkpt>
      <trkpt lat="49.58005" lon="3.43412">
        <ele>192.19</ele>
        <time>2017-11-06T13:41:35.999Z</time>
      </trkpt>
      <trkpt lat="49.58007" lon="3.43413">
        <ele>191.17</ele>
        <time>2017-11-06T13:42:06.999Z</time>
      </trkpt>
      <trkpt lat="49.58007" lon="3.43412">
        <ele>189.36</ele>
        <time>2017-11-06T13:42:25.999Z</time>
      </trkpt>
      <trkpt lat="49.58004" lon="3.43403">
        <ele>188.53</ele>
        <time>2017-11-06T13:42:35.999Z</time>
      </trkpt>
      <trkpt lat="49.58005" lon="3.43404">
        <ele>188.25</ele>
        <time>2017-11-06T13:42:45.999Z</time>
      </trkpt>
      <trkpt lat="49.58006" lon="3.43406">
        <ele>187.93</ele>
        <time>2017-11-06T13:42:55.999Z</time>
      </trkpt>
      <trkpt lat="49.58007" lon="3.43409">
        <ele>187.81</ele>
        <time>2017-11-06T13:43:05.999Z</time>
      </trkpt>
      <trkpt lat="49.58006" lon="3.43404">
        <ele>187.44</ele>
        <time>2017-11-06T13:43:15.999Z</time>
      </trkpt>
      <trkpt lat="49.58003" lon="3.43401">
        <ele>186.3</ele>
        <time>2017-11-06T13:43:25.999Z</time>
      </trkpt>
      <trkpt lat="49.58006" lon="3.43406">
        <ele>185.42</ele>
        <time>2017-11-06T13:43:36.000Z</time>
      </trkpt>
      <trkpt lat="49.5801" lon="3.43412">
        <ele>184.94</ele>
        <time>2017-11-06T13:43:46.000Z</time>
      </trkpt>
      <trkpt lat="49.58011" lon="3.43412">
        <ele>183.64</ele>
        <time>2017-11-06T13:43:59.000Z</time>
      </trkpt>
      <trkpt lat="49.58013" lon="3.43418">
        <ele>181.77</ele>
        <time>2017-11-06T13:44:09.000Z</time>
      </trkpt>
      <trkpt lat="49.58015" lon="3.43417">
        <ele>180.58</ele>
        <time>2017-11-06T13:44:19.000Z</time>
      </trkpt>
      <trkpt lat="49.58015" lon="3.43411">
        <ele>180.11</ele>
        <time>2017-11-06T13:44:29.000Z</time>
      </trkpt>
      <trkpt lat="49.58014" lon="3.43414">
        <ele>179.84</ele>
        <time>2017-11-06T13:44:39.000Z</time>
      </trkpt>
      <trkpt lat="49.58015" lon="3.43412">
        <ele>178.5</ele>
        <time>2017-11-06T13:44:54.000Z</time>
      </trkpt>
      <trkpt lat="49.58015" lon="3.4341">
        <ele>178.67</ele>
        <time>2017-11-06T13:45:06.000Z</time>
      </trkpt>
      <trkpt lat="49.58012" lon="3.43407">
        <ele>180.02</ele>
        <time>2017-11-06T13:45:16.000Z</time>
      </trkpt>
      <trkpt lat="49.58002" lon="3.43414">
        <ele>183.51</ele>
        <time>2017-11-06T13:45:26.000Z</time>
      </trkpt>
      <trkpt lat="49.57994" lon="3.43424">
        <ele>187.4</ele>
        <time>2017-11-06T13:45:36.000Z</time>
      </trkpt>
      <trkpt lat="49.57986" lon="3.43439">
        <ele>190.84</ele>
        <time>2017-11-06T13:45:46.000Z</time>
      </trkpt>
      <trkpt lat="49.5798" lon="3.43452">
        <ele>192.92</ele>
        <time>2017-11-06T13:45:56.000Z</time>
      </trkpt>
      <trkpt lat="49.57976" lon="3.43469">
        <ele>193.47</ele>
        <time>2017-11-06T13:46:06.000Z</time>
      </trkpt>
      <trkpt lat="49.57972" lon="3.43485">
        <ele>193.66</ele>
        <time>2017-11-06T13:46:16.000Z</time>
      </trkpt>
      <trkpt lat="49.57966" lon="3.43494">
        <ele>194.17</ele>
        <time>2017-11-06T13:46:26.000Z</time>
      </trkpt>
      <trkpt lat="49.5796" lon="3.43508">
        <ele>194.74</ele>
        <time>2017-11-06T13:46:36.000Z</time>
      </trkpt>
      <trkpt lat="49.57953" lon="3.4352">
        <ele>195.35</ele>
        <time>2017-11-06T13:46:46.000Z</time>
      </trkpt>
      <trkpt lat="49.57945" lon="3.43531">
        <ele>194.86</ele>
        <time>2017-11-06T13:46:56.000Z</time>
      </trkpt>
      <trkpt lat="49.57939" lon="3.43537">
        <ele>193.92</ele>
        <time>2017-11-06T13:47:06.000Z</time>
      </trkpt>
      <trkpt lat="49.57929" lon="3.43554">
        <ele>193.04</ele>
        <time>2017-11-06T13:47:16.000Z</time>
      </trkpt>
      <trkpt lat="49.57925" lon="3.43566">
        <ele>192.85</ele>
        <time>2017-11-06T13:47:26.000Z</time>
      </trkpt>
      <trkpt lat="49.57919" lon="3.43577">
        <ele>192.62</ele>
        <time>2017-11-06T13:47:36.000Z</time>
      </trkpt>
      <trkpt lat="49.57915" lon="3.43583">
        <ele>192.53</ele>
        <time>2017-11-06T13:47:46.000Z</time>
      </trkpt>
      <trkpt lat="49.57907" lon="3.43593">
        <ele>192.31</ele>
        <time>2017-11-06T13:47:56.000Z</time>
      </trkpt>
      <trkpt lat="49.57897" lon="3.43605">
        <ele>191.69</ele>
        <time>2017-11-06T13:48:06.000Z</time>
      </trkpt>
      <trkpt lat="49.57892" lon="3.43613">
        <ele>190.64</ele>
        <time>2017-11-06T13:48:16.000Z</time>
      </trkpt>
      <trkpt lat="49.57885" lon="3.43625">
        <ele>189.27</ele>
        <time>2017-11-06T13:48:26.000Z</time>
      </trkpt>
      <trkpt lat="49.57881" lon="3.43635">
        <ele>188.22</ele>
        <time>2017-11-06T13:48:36.000Z</time>
      </trkpt>
      <trkpt lat="49.57878" lon="3.43653">
        <ele>187.79</ele>
        <time>2017-11-06T13:48:46.000Z</time>
      </trkpt>
      <trkpt lat="49.57873" lon="3.43665">
        <ele>187.26</ele>
        <time>2017-11-06T13:48:56.000Z</time>
      </trkpt>
      <trkpt lat="49.57867" lon="3.43676">
        <ele>186.01</ele>
        <time>2017-11-06T13:49:06.000Z</time>
      </trkpt>
      <trkpt lat="49.5786" lon="3.43684">
        <ele>184.71</ele>
        <time>2017-11-06T13:49:16.000Z</time>
      </trkpt>
      <trkpt lat="49.57851" lon="3.43704">
        <ele>184.29</ele>
        <time>2017-11-06T13:49:26.000Z</time>
      </trkpt>
      <trkpt lat="49.57844" lon="3.43716">
        <ele>183.59</ele>
        <time>2017-11-06T13:49:36.000Z</time>
      </trkpt>
      <trkpt lat="49.57839" lon="3.4373">
        <ele>182.93</ele>
        <time>2017-11-06T13:49:46.000Z</time>
      </trkpt>
      <trkpt lat="49.57831" lon="3.4375">
        <ele>182.13</ele>
        <time>2017-11-06T13:49:56.000Z</time>
      </trkpt>
      <trkpt lat="49.57822" lon="3.43768">
        <ele>181.28</ele>
        <time>2017-11-06T13:50:06.000Z</time>
      </trkpt>
      <trkpt lat="49.57819" lon="3.43781">
        <ele>181.57</ele>
        <time>2017-11-06T13:50:16.000Z</time>
      </trkpt>
      <trkpt lat="49.57816" lon="3.4379">
        <ele>180.96</ele>
        <time>2017-11-06T13:50:26.000Z</time>
      </trkpt>
      <trkpt lat="49.57816" lon="3.43799">
        <ele>178.89</ele>
        <time>2017-11-06T13:50:36.000Z</time>
      </trkpt>
      <trkpt lat="49.57813" lon="3.43809">
        <ele>176.67</ele>
        <time>2017-11-06T13:50:46.000Z</time>
      </trkpt>
      <trkpt lat="49.57808" lon="3.4383">
        <ele>174.65</ele>
        <time>2017-11-06T13:50:56.000Z</time>
      </trkpt>
      <trkpt lat="49.57807" lon="3.43836">
        <ele>174.39</ele>
        <time>2017-11-06T13:51:06.000Z</time>
      </trkpt>
      <trkpt lat="49.57808" lon="3.43834">
        <ele>174.57</ele>
        <time>2017-11-06T13:51:16.000Z</time>
      </trkpt>
      <trkpt lat="49.57806" lon="3.43836">
        <ele>174.81</ele>
        <time>2017-11-06T13:51:26.000Z</time>
      </trkpt>
      <trkpt lat="49.57804" lon="3.43842">
        <ele>175.92</ele>
        <time>2017-11-06T13:51:36.000Z</time>
      </trkpt>
      <trkpt lat="49.57805" lon="3.43836">
        <ele>176.01</ele>
        <time>2017-11-06T13:51:46.000Z</time>
      </trkpt>
      <trkpt lat="49.57805" lon="3.43834">
        <ele>176.29</ele>
        <time>2017-11-06T13:51:57.000Z</time>
      </trkpt>
      <trkpt lat="49.57803" lon="3.43821">
        <ele>176.02</ele>
        <time>2017-11-06T13:52:07.000Z</time>
      </trkpt>
      <trkpt lat="49.57802" lon="3.4382">
        <ele>176.13</ele>
        <time>2017-11-06T13:52:18.000Z</time>
      </trkpt>
      <trkpt lat="49.57799" lon="3.43827">
        <ele>176</ele>
        <time>2017-11-06T13:52:28.000Z</time>
      </trkpt>
      <trkpt lat="49.5781" lon="3.43831">
        <ele>173.66</ele>
        <time>2017-11-06T13:52:38.000Z</time>
      </trkpt>
      <trkpt lat="49.57818" lon="3.43842">
        <ele>170.61</ele>
        <time>2017-11-06T13:52:48.000Z</time>
      </trkpt>
      <trkpt lat="49.57826" lon="3.43851">
        <ele>167.45</ele>
        <time>2017-11-06T13:52:58.000Z</time>
      </trkpt>
      <trkpt lat="49.57834" lon="3.43862">
        <ele>164.23</ele>
        <time>2017-11-06T13:53:08.000Z</time>
      </trkpt>
      <trkpt lat="49.57838" lon="3.43874">
        <ele>161.27</ele>
        <time>2017-11-06T13:53:18.000Z</time>
      </trkpt>
      <trkpt lat="49.57841" lon="3.43882">
        <ele>158.33</ele>
        <time>2017-11-06T13:53:28.000Z</time>
      </trkpt>
      <trkpt lat="49.57847" lon="3.43899">
        <ele>156.11</ele>
        <time>2017-11-06T13:53:38.000Z</time>
      </trkpt>
      <trkpt lat="49.57853" lon="3.4391">
        <ele>155.59</ele>
        <time>2017-11-06T13:53:48.000Z</time>
      </trkpt>
      <trkpt lat="49.57859" lon="3.43922">
        <ele>155.88</ele>
        <time>2017-11-06T13:53:58.000Z</time>
      </trkpt>
      <trkpt lat="49.57866" lon="3.43938">
        <ele>156.01</ele>
        <time>2017-11-06T13:54:08.000Z</time>
      </trkpt>
      <trkpt lat="49.57872" lon="3.43953">
        <ele>156.31</ele>
        <time>2017-11-06T13:54:18.000Z</time>
      </trkpt>
      <trkpt lat="49.57879" lon="3.43962">
        <ele>156.1</ele>
        <time>2017-11-06T13:54:28.000Z</time>
      </trkpt>
      <trkpt lat="49.57885" lon="3.43976">
        <ele>156.62</ele>
        <time>2017-11-06T13:54:38.000Z</time>
      </trkpt>
      <trkpt lat="49.57891" lon="3.43982">
        <ele>156.81</ele>
        <time>2017-11-06T13:54:48.000Z</time>
      </trkpt>
      <trkpt lat="49.57903" lon="3.43995">
        <ele>156.36</ele>
        <time>2017-11-06T13:54:58.000Z</time>
      </trkpt>
      <trkpt lat="49.57914" lon="3.44003">
        <ele>154.41</ele>
        <time>2017-11-06T13:55:08.000Z</time>
      </trkpt>
      <trkpt lat="49.57921" lon="3.44013">
        <ele>152.2</ele>
        <time>2017-11-06T13:55:18.000Z</time>
      </trkpt>
      <trkpt lat="49.57932" lon="3.44025">
        <ele>149.98</ele>
        <time>2017-11-06T13:55:28.000Z</time>
      </trkpt>
      <trkpt lat="49.57942" lon="3.44035">
        <ele>148.66</ele>
        <time>2017-11-06T13:55:38.000Z</time>
      </trkpt>
      <trkpt lat="49.5795" lon="3.44047">
        <ele>148.45</ele>
        <time>2017-11-06T13:55:48.000Z</time>
      </trkpt>
      <trkpt lat="49.57958" lon="3.44056">
        <ele>148.55</ele>
        <time>2017-11-06T13:55:58.000Z</time>
      </trkpt>
      <trkpt lat="49.57973" lon="3.4407">
        <ele>148.76</ele>
        <time>2017-11-06T13:56:08.000Z</time>
      </trkpt>
      <trkpt lat="49.5798" lon="3.44076">
        <ele>149.3</ele>
        <time>2017-11-06T13:56:18.000Z</time>
      </trkpt>
      <trkpt lat="49.57985" lon="3.44084">
        <ele>150.69</ele>
        <time>2017-11-06T13:56:28.000Z</time>
      </trkpt>
      <trkpt lat="49.57991" lon="3.44096">
        <ele>152.15</ele>
        <time>2017-11-06T13:56:38.000Z</time>
      </trkpt>
      <trkpt lat="49.58002" lon="3.44108">
        <ele>152.98</ele>
        <time>2017-11-06T13:56:48.000Z</time>
      </trkpt>
      <trkpt lat="49.58009" lon="3.4412">
        <ele>153.28</ele>
        <time>2017-11-06T13:56:58.000Z</time>
      </trkpt>
      <trkpt lat="49.58018" lon="3.44132">
        <ele>152.73</ele>
        <time>2017-11-06T13:57:08.000Z</time>
      </trkpt>
      <trkpt lat="49.58024" lon="3.44146">
        <ele>152.08</ele>
        <time>2017-11-06T13:57:18.000Z</time>
      </trkpt>
      <trkpt lat="49.5803" lon="3.44157">
        <ele>152.06</ele>
        <time>2017-11-06T13:57:28.000Z</time>
      </trkpt>
      <trkpt lat="49.58039" lon="3.44169">
        <ele>152.31</ele>
        <time>2017-11-06T13:57:38.000Z</time>
      </trkpt>
      <trkpt lat="49.58052" lon="3.44181">
        <ele>153.43</ele>
        <time>2017-11-06T13:57:48.000Z</time>
      </trkpt>
      <trkpt lat="49.58063" lon="3.44191">
        <ele>154.74</ele>
        <time>2017-11-06T13:57:58.000Z</time>
      </trkpt>
      <trkpt lat="49.58073" lon="3.44204">
        <ele>154.82</ele>
        <time>2017-11-06T13:58:08.000Z</time>
      </trkpt>
      <trkpt lat="49.58078" lon="3.44216">
        <ele>154.41</ele>
        <time>2017-11-06T13:58:18.000Z</time>
      </trkpt>
      <trkpt lat="49.58084" lon="3.44226">
        <ele>153.85</ele>
        <time>2017-11-06T13:58:28.000Z</time>
      </trkpt>
      <trkpt lat="49.58089" lon="3.44237">
        <ele>152.98</ele>
        <time>2017-11-06T13:58:38.000Z</time>
      </trkpt>
      <trkpt lat="49.58099" lon="3.4425">
        <ele>152.75</ele>
        <time>2017-11-06T13:58:48.000Z</time>
      </trkpt>
      <trkpt lat="49.58106" lon="3.44258">
        <ele>153.19</ele>
        <time>2017-11-06T13:58:58.000Z</time>
      </trkpt>
      <trkpt lat="49.5812" lon="3.44271">
        <ele>154.01</ele>
        <time>2017-11-06T13:59:08.000Z</time>
      </trkpt>
      <trkpt lat="49.5813" lon="3.44281">
        <ele>154.73</ele>
        <time>2017-11-06T13:59:18.000Z</time>
      </trkpt>
      <trkpt lat="49.58139" lon="3.4429">
        <ele>156.26</ele>
        <time>2017-11-06T13:59:28.000Z</time>
      </trkpt>
      <trkpt lat="49.58147" lon="3.44298">
        <ele>159.04</ele>
        <time>2017-11-06T13:59:38.000Z</time>
      </trkpt>
      <trkpt lat="49.58155" lon="3.44312">
        <ele>161.14</ele>
        <time>2017-11-06T13:59:48.000Z</time>
      </trkpt>
      <trkpt lat="49.58163" lon="3.44323">
        <ele>163.35</ele>
        <time>2017-11-06T13:59:58.000Z</time>
      </trkpt>
      <trkpt lat="49.58171" lon="3.44329">
        <ele>164.97</ele>
        <time>2017-11-06T14:00:08.000Z</time>
      </trkpt>
      <trkpt lat="49.58186" lon="3.44338">
        <ele>165.1</ele>
        <time>2017-11-06T14:00:18.000Z</time>
      </trkpt>
      <trkpt lat="49.58193" lon="3.44342">
        <ele>164.26</ele>
        <time>2017-11-06T14:00:28.000Z</time>
      </trkpt>
      <trkpt lat="49.58205" lon="3.44354">
        <ele>162.72</ele>
        <time>2017-11-06T14:00:38.000Z</time>
      </trkpt>
      <trkpt lat="49.58216" lon="3.44366">
        <ele>161.2</ele>
        <time>2017-11-06T14:00:48.000Z</time>
      </trkpt>
      <trkpt lat="49.58228" lon="3.44381">
        <ele>160.63</ele>
        <time>2017-11-06T14:00:58.000Z</time>
      </trkpt>
      <trkpt lat="49.58236" lon="3.44391">
        <ele>161.27</ele>
        <time>2017-11-06T14:01:08.000Z</time>
      </trkpt>
      <trkpt lat="49.58246" lon="3.44403">
        <ele>163.12</ele>
        <time>2017-11-06T14:01:18.000Z</time>
      </trkpt>
      <trkpt lat="49.58256" lon="3.44413">
        <ele>163.8</ele>
        <time>2017-11-06T14:01:28.000Z</time>
      </trkpt>
      <trkpt lat="49.58264" lon="3.44418">
        <ele>164.05</ele>
        <time>2017-11-06T14:01:38.000Z</time>
      </trkpt>
      <trkpt lat="49.58272" lon="3.44427">
        <ele>164.9</ele>
        <time>2017-11-06T14:01:48.000Z</time>
      </trkpt>
      <trkpt lat="49.58281" lon="3.44443">
        <ele>165.76</ele>
        <time>2017-11-06T14:01:58.000Z</time>
      </trkpt>
      <trkpt lat="49.58285" lon="3.44445">
        <ele>166</ele>
        <time>2017-11-06T14:02:08.000Z</time>
      </trkpt>
      <trkpt lat="49.58294" lon="3.44451">
        <ele>165.98</ele>
        <time>2017-11-06T14:02:18.000Z</time>
      </trkpt>
      <trkpt lat="49.58305" lon="3.44455">
        <ele>166.53</ele>
        <time>2017-11-06T14:02:28.000Z</time>
      </trkpt>
      <trkpt lat="49.58319" lon="3.4446">
        <ele>167.52</ele>
        <time>2017-11-06T14:02:38.000Z</time>
      </trkpt>
      <trkpt lat="49.58333" lon="3.44468">
        <ele>168.89</ele>
        <time>2017-11-06T14:02:48.000Z</time>
      </trkpt>
      <trkpt lat="49.58341" lon="3.44474">
        <ele>169.47</ele>
        <time>2017-11-06T14:02:58.000Z</time>
      </trkpt>
      <trkpt lat="49.58355" lon="3.4448">
        <ele>169.84</ele>
        <time>2017-11-06T14:03:08.000Z</time>
      </trkpt>
      <trkpt lat="49.58366" lon="3.44483">
        <ele>170.44</ele>
        <time>2017-11-06T14:03:18.000Z</time>
      </trkpt>
      <trkpt lat="49.58379" lon="3.44485">
        <ele>171.3</ele>
        <time>2017-11-06T14:03:28.000Z</time>
      </trkpt>
      <trkpt lat="49.58393" lon="3.44487">
        <ele>172.58</ele>
        <time>2017-11-06T14:03:38.000Z</time>
      </trkpt>
      <trkpt lat="49.58401" lon="3.44493">
        <ele>172.86</ele>
        <time>2017-11-06T14:03:48.000Z</time>
      </trkpt>
      <trkpt lat="49.58412" lon="3.44499">
        <ele>172.29</ele>
        <time>2017-11-06T14:03:58.000Z</time>
      </trkpt>
      <trkpt lat="49.58423" lon="3.44501">
        <ele>172.05</ele>
        <time>2017-11-06T14:04:08.000Z</time>
      </trkpt>
      <trkpt lat="49.58434" lon="3.44509">
        <ele>172.23</ele>
        <time>2017-11-06T14:04:18.000Z</time>
      </trkpt>
      <trkpt lat="49.58446" lon="3.44517">
        <ele>171.84</ele>
        <time>2017-11-06T14:04:28.000Z</time>
      </trkpt>
      <trkpt lat="49.58461" lon="3.44524">
        <ele>171.66</ele>
        <time>2017-11-06T14:04:38.000Z</time>
      </trkpt>
      <trkpt lat="49.58471" lon="3.44528">
        <ele>171.74</ele>
        <time>2017-11-06T14:04:48.000Z</time>
      </trkpt>
      <trkpt lat="49.58478" lon="3.44532">
        <ele>171.69</ele>
        <time>2017-11-06T14:04:58.000Z</time>
      </trkpt>
      <trkpt lat="49.58489" lon="3.4454">
        <ele>171.64</ele>
        <time>2017-11-06T14:05:08.000Z</time>
      </trkpt>
      <trkpt lat="49.58503" lon="3.44551">
        <ele>172.03</ele>
        <time>2017-11-06T14:05:18.000Z</time>
      </trkpt>
      <trkpt lat="49.58516" lon="3.4456">
        <ele>172.17</ele>
        <time>2017-11-06T14:05:28.000Z</time>
      </trkpt>
      <trkpt lat="49.58526" lon="3.44569">
        <ele>172.33</ele>
        <time>2017-11-06T14:05:38.000Z</time>
      </trkpt>
      <trkpt lat="49.58532" lon="3.44573">
        <ele>171.51</ele>
        <time>2017-11-06T14:05:48.000Z</time>
      </trkpt>
      <trkpt lat="49.58544" lon="3.4458">
        <ele>170.51</ele>
        <time>2017-11-06T14:05:58.000Z</time>
      </trkpt>
      <trkpt lat="49.58554" lon="3.44587">
        <ele>169.81</ele>
        <time>2017-11-06T14:06:08.000Z</time>
      </trkpt>
      <trkpt lat="49.58559" lon="3.44586">
        <ele>170.5</ele>
        <time>2017-11-06T14:06:18.000Z</time>
      </trkpt>
      <trkpt lat="49.58571" lon="3.44595">
        <ele>172.34</ele>
        <time>2017-11-06T14:06:28.000Z</time>
      </trkpt>
      <trkpt lat="49.58585" lon="3.44594">
        <ele>174.04</ele>
        <time>2017-11-06T14:06:38.000Z</time>
      </trkpt>
      <trkpt lat="49.58596" lon="3.44595">
        <ele>175.43</ele>
        <time>2017-11-06T14:06:48.000Z</time>
      </trkpt>
      <trkpt lat="49.58609" lon="3.44605">
        <ele>176.47</ele>
        <time>2017-11-06T14:06:58.000Z</time>
      </trkpt>
      <trkpt lat="49.58621" lon="3.44612">
        <ele>177.69</ele>
        <time>2017-11-06T14:07:08.000Z</time>
      </trkpt>
      <trkpt lat="49.58626" lon="3.44616">
        <ele>178.28</ele>
        <time>2017-11-06T14:07:18.000Z</time>
      </trkpt>
      <trkpt lat="49.58636" lon="3.44627">
        <ele>178.44</ele>
        <time>2017-11-06T14:07:28.000Z</time>
      </trkpt>
      <trkpt lat="49.5864" lon="3.44635">
        <ele>177.95</ele>
        <time>2017-11-06T14:07:37.999Z</time>
      </trkpt>
      <trkpt lat="49.58643" lon="3.44641">
        <ele>176.27</ele>
        <time>2017-11-06T14:07:47.999Z</time>
      </trkpt>
      <trkpt lat="49.58645" lon="3.4465">
        <ele>174.85</ele>
        <time>2017-11-06T14:07:57.999Z</time>
      </trkpt>
      <trkpt lat="49.58642" lon="3.4465">
        <ele>174.38</ele>
        <time>2017-11-06T14:08:07.999Z</time>
      </trkpt>
      <trkpt lat="49.58642" lon="3.44648">
        <ele>173.46</ele>
        <time>2017-11-06T14:08:17.999Z</time>
      </trkpt>
      <trkpt lat="49.58642" lon="3.44658">
        <ele>171.6</ele>
        <time>2017-11-06T14:08:27.999Z</time>
      </trkpt>
      <trkpt lat="49.5864" lon="3.44667">
        <ele>170.65</ele>
        <time>2017-11-06T14:08:37.999Z</time>
      </trkpt>
      <trkpt lat="49.58637" lon="3.44672">
        <ele>170.4</ele>
        <time>2017-11-06T14:08:47.999Z</time>
      </trkpt>
      <trkpt lat="49.58637" lon="3.44676">
        <ele>170.3</ele>
        <time>2017-11-06T14:08:57.999Z</time>
      </trkpt>
      <trkpt lat="49.58636" lon="3.44671">
        <ele>170.41</ele>
        <time>2017-11-06T14:09:07.999Z</time>
      </trkpt>
      <trkpt lat="49.58635" lon="3.44673">
        <ele>170.75</ele>
        <time>2017-11-06T14:09:17.999Z</time>
      </trkpt>
      <trkpt lat="49.58634" lon="3.44675">
        <ele>172.03</ele>
        <time>2017-11-06T14:09:27.999Z</time>
      </trkpt>
      <trkpt lat="49.58633" lon="3.44676">
        <ele>172.23</ele>
        <time>2017-11-06T14:09:39.999Z</time>
      </trkpt>
      <trkpt lat="49.58633" lon="3.44677">
        <ele>173.37</ele>
        <time>2017-11-06T14:09:50.999Z</time>
      </trkpt>
      <trkpt lat="49.58632" lon="3.44662">
        <ele>175.97</ele>
        <time>2017-11-06T14:10:00.999Z</time>
      </trkpt>
      <trkpt lat="49.58632" lon="3.44659">
        <ele>177.5</ele>
        <time>2017-11-06T14:10:10.999Z</time>
      </trkpt>
      <trkpt lat="49.58632" lon="3.44664">
        <ele>178.07</ele>
        <time>2017-11-06T14:10:20.999Z</time>
      </trkpt>
      <trkpt lat="49.58631" lon="3.44675">
        <ele>176.83</ele>
        <time>2017-11-06T14:10:30.999Z</time>
      </trkpt>
      <trkpt lat="49.58629" lon="3.44681">
        <ele>174.64</ele>
        <time>2017-11-06T14:10:40.999Z</time>
      </trkpt>
      <trkpt lat="49.58631" lon="3.44695">
        <ele>172.67</ele>
        <time>2017-11-06T14:10:50.999Z</time>
      </trkpt>
      <trkpt lat="49.58634" lon="3.44701">
        <ele>171.25</ele>
        <time>2017-11-06T14:11:00.999Z</time>
      </trkpt>
      <trkpt lat="49.58636" lon="3.44703">
        <ele>170.93</ele>
        <time>2017-11-06T14:11:10.999Z</time>
      </trkpt>
      <trkpt lat="49.5863" lon="3.44702">
        <ele>170.81</ele>
        <time>2017-11-06T14:11:20.999Z</time>
      </trkpt>
      <trkpt lat="49.58629" lon="3.4471">
        <ele>170.48</ele>
        <time>2017-11-06T14:11:30.999Z</time>
      </trkpt>
      <trkpt lat="49.5863" lon="3.44713">
        <ele>170.36</ele>
        <time>2017-11-06T14:11:40.999Z</time>
      </trkpt>
      <trkpt lat="49.58631" lon="3.44712">
        <ele>170.6</ele>
        <time>2017-11-06T14:11:50.999Z</time>
      </trkpt>
      <trkpt lat="49.58632" lon="3.44711">
        <ele>171.88</ele>
        <time>2017-11-06T14:12:11.999Z</time>
      </trkpt>
      <trkpt lat="49.58634" lon="3.44708">
        <ele>172.59</ele>
        <time>2017-11-06T14:12:21.999Z</time>
      </trkpt>
      <trkpt lat="49.58634" lon="3.44706">
        <ele>173.5</ele>
        <time>2017-11-06T14:12:35.999Z</time>
      </trkpt>
      <trkpt lat="49.58633" lon="3.44709">
        <ele>174.05</ele>
        <time>2017-11-06T14:12:45.999Z</time>
      </trkpt>
      <trkpt lat="49.58635" lon="3.44708">
        <ele>175.26</ele>
        <time>2017-11-06T14:12:55.999Z</time>
      </trkpt>
      <trkpt lat="49.58635" lon="3.44713">
        <ele>176.18</ele>
        <time>2017-11-06T14:13:05.999Z</time>
      </trkpt>
      <trkpt lat="49.58637" lon="3.44709">
        <ele>177.19</ele>
        <time>2017-11-06T14:13:15.999Z</time>
      </trkpt>
      <trkpt lat="49.58638" lon="3.44708">
        <ele>177.33</ele>
        <time>2017-11-06T14:13:25.999Z</time>
      </trkpt>
      <trkpt lat="49.58644" lon="3.44709">
        <ele>177.68</ele>
        <time>2017-11-06T14:13:35.999Z</time>
      </trkpt>
      <trkpt lat="49.58655" lon="3.44707">
        <ele>178.53</ele>
        <time>2017-11-06T14:13:45.999Z</time>
      </trkpt>
      <trkpt lat="49.58659" lon="3.44705">
        <ele>179.29</ele>
        <time>2017-11-06T14:13:55.999Z</time>
      </trkpt>
      <trkpt lat="49.58665" lon="3.44701">
        <ele>180.66</ele>
        <time>2017-11-06T14:14:05.999Z</time>
      </trkpt>
      <trkpt lat="49.58663" lon="3.44706">
        <ele>181.42</ele>
        <time>2017-11-06T14:14:15.999Z</time>
      </trkpt>
      <trkpt lat="49.58658" lon="3.44711">
        <ele>182.58</ele>
        <time>2017-11-06T14:14:25.999Z</time>
      </trkpt>
      <trkpt lat="49.5865" lon="3.44717">
        <ele>184.26</ele>
        <time>2017-11-06T14:14:35.999Z</time>
      </trkpt>
      <trkpt lat="49.58645" lon="3.44719">
        <ele>184.36</ele>
        <time>2017-11-06T14:14:45.999Z</time>
      </trkpt>
      <trkpt lat="49.58646" lon="3.44714">
        <ele>183.11</ele>
        <time>2017-11-06T14:14:55.999Z</time>
      </trkpt>
      <trkpt lat="49.58647" lon="3.44713">
        <ele>183.05</ele>
        <time>2017-11-06T14:15:06.999Z</time>
      </trkpt>
      <trkpt lat="49.58647" lon="3.44709">
        <ele>183.33</ele>
        <time>2017-11-06T14:15:16.999Z</time>
      </trkpt>
      <trkpt lat="49.58646" lon="3.44712">
        <ele>183.53</ele>
        <time>2017-11-06T14:15:26.999Z</time>
      </trkpt>
      <trkpt lat="49.58645" lon="3.44717">
        <ele>183.77</ele>
        <time>2017-11-06T14:15:36.999Z</time>
      </trkpt>
      <trkpt lat="49.58644" lon="3.44715">
        <ele>183.8</ele>
        <time>2017-11-06T14:15:46.999Z</time>
      </trkpt>
      <trkpt lat="49.58644" lon="3.44714">
        <ele>183.65</ele>
        <time>2017-11-06T14:15:56.999Z</time>
      </trkpt>
      <trkpt lat="49.58641" lon="3.44711">
        <ele>182.4</ele>
        <time>2017-11-06T14:16:06.999Z</time>
      </trkpt>
      <trkpt lat="49.58637" lon="3.44717">
        <ele>182.02</ele>
        <time>2017-11-06T14:16:16.999Z</time>
      </trkpt>
      <trkpt lat="49.58639" lon="3.44721">
        <ele>182.22</ele>
        <time>2017-11-06T14:16:26.999Z</time>
      </trkpt>
      <trkpt lat="49.5864" lon="3.44723">
        <ele>183.53</ele>
        <time>2017-11-06T14:16:36.999Z</time>
      </trkpt>
      <trkpt lat="49.58639" lon="3.44724">
        <ele>184.23</ele>
        <time>2017-11-06T14:16:46.999Z</time>
      </trkpt>
      <trkpt lat="49.58638" lon="3.44721">
        <ele>185.01</ele>
        <time>2017-11-06T14:17:01.999Z</time>
      </trkpt>
      <trkpt lat="49.58638" lon="3.4472">
        <ele>186.47</ele>
        <time>2017-11-06T14:17:15.999Z</time>
      </trkpt>
      <trkpt lat="49.58638" lon="3.44716">
        <ele>187.83</ele>
        <time>2017-11-06T14:17:26.999Z</time>
      </trkpt>
      <trkpt lat="49.58639" lon="3.44713">
        <ele>188.42</ele>
        <time>2017-11-06T14:17:36.999Z</time>
      </trkpt>
      <trkpt lat="49.5864" lon="3.44711">
        <ele>189.58</ele>
        <time>2017-11-06T14:17:50.999Z</time>
      </trkpt>
      <trkpt lat="49.58641" lon="3.44708">
        <ele>190.49</ele>
        <time>2017-11-06T14:18:00.999Z</time>
      </trkpt>
      <trkpt lat="49.58641" lon="3.44707">
        <ele>190.05</ele>
        <time>2017-11-06T14:18:10.999Z</time>
      </trkpt>
      <trkpt lat="49.58644" lon="3.44707">
        <ele>189.6</ele>
        <time>2017-11-06T14:18:20.999Z</time>
      </trkpt>
      <trkpt lat="49.58646" lon="3.44709">
        <ele>189.43</ele>
        <time>2017-11-06T14:18:30.999Z</time>
      </trkpt>
      <trkpt lat="49.58646" lon="3.44713">
        <ele>189.35</ele>
        <time>2017-11-06T14:18:40.999Z</time>
      </trkpt>
      <trkpt lat="49.58656" lon="3.44701">
        <ele>188.76</ele>
        <time>2017-11-06T14:18:50.999Z</time>
      </trkpt>
      <trkpt lat="49.58657" lon="3.44702">
        <ele>188.62</ele>
        <time>2017-11-06T14:19:00.999Z</time>
      </trkpt>
      <trkpt lat="49.58659" lon="3.44701">
        <ele>188.38</ele>
        <time>2017-11-06T14:19:10.999Z</time>
      </trkpt>
      <trkpt lat="49.58665" lon="3.44696">
        <ele>187.28</ele>
        <time>2017-11-06T14:19:20.999Z</time>
      </trkpt>
      <trkpt lat="49.58663" lon="3.4468">
        <ele>186.54</ele>
        <time>2017-11-06T14:19:30.999Z</time>
      </trkpt>
      <trkpt lat="49.58663" lon="3.44672">
        <ele>186.92</ele>
        <time>2017-11-06T14:19:40.999Z</time>
      </trkpt>
      <trkpt lat="49.5866" lon="3.44665">
        <ele>187.7</ele>
        <time>2017-11-06T14:19:50.999Z</time>
      </trkpt>
      <trkpt lat="49.58658" lon="3.44654">
        <ele>187.75</ele>
        <time>2017-11-06T14:20:00.999Z</time>
      </trkpt>
      <trkpt lat="49.58658" lon="3.4465">
        <ele>187.76</ele>
        <time>2017-11-06T14:20:11.999Z</time>
      </trkpt>
      <trkpt lat="49.58669" lon="3.44653">
        <ele>188.2</ele>
        <time>2017-11-06T14:20:21.999Z</time>
      </trkpt>
      <trkpt lat="49.58686" lon="3.4465">
        <ele>188.9</ele>
        <time>2017-11-06T14:20:31.999Z</time>
      </trkpt>
      <trkpt lat="49.587" lon="3.44649">
        <ele>189.56</ele>
        <time>2017-11-06T14:20:41.999Z</time>
      </trkpt>
      <trkpt lat="49.58716" lon="3.44651">
        <ele>189.72</ele>
        <time>2017-11-06T14:20:51.999Z</time>
      </trkpt>
      <trkpt lat="49.58725" lon="3.44654">
        <ele>188.7</ele>
        <time>2017-11-06T14:21:01.999Z</time>
      </trkpt>
      <trkpt lat="49.58733" lon="3.44663">
        <ele>187.73</ele>
        <time>2017-11-06T14:21:11.999Z</time>
      </trkpt>
      <trkpt lat="49.58739" lon="3.44674">
        <ele>186.48</ele>
        <time>2017-11-06T14:21:21.999Z</time>
      </trkpt>
      <trkpt lat="49.58742" lon="3.44685">
        <ele>184.44</ele>
        <time>2017-11-06T14:21:31.999Z</time>
      </trkpt>
      <trkpt lat="49.58746" lon="3.44702">
        <ele>182.07</ele>
        <time>2017-11-06T14:21:41.999Z</time>
      </trkpt>
      <trkpt lat="49.58749" lon="3.44715">
        <ele>179.98</ele>
        <time>2017-11-06T14:21:51.999Z</time>
      </trkpt>
      <trkpt lat="49.58754" lon="3.4473">
        <ele>177.85</ele>
        <time>2017-11-06T14:22:01.999Z</time>
      </trkpt>
      <trkpt lat="49.58757" lon="3.44746">
        <ele>175.61</ele>
        <time>2017-11-06T14:22:11.999Z</time>
      </trkpt>
      <trkpt lat="49.58759" lon="3.44762">
        <ele>173.88</ele>
        <time>2017-11-06T14:22:21.999Z</time>
      </trkpt>
      <trkpt lat="49.58762" lon="3.44776">
        <ele>172.71</ele>
        <time>2017-11-06T14:22:31.999Z</time>
      </trkpt>
      <trkpt lat="49.58765" lon="3.4479">
        <ele>171.82</ele>
        <time>2017-11-06T14:22:41.999Z</time>
      </trkpt>
      <trkpt lat="49.58767" lon="3.4481">
        <ele>171.52</ele>
        <time>2017-11-06T14:22:51.999Z</time>
      </trkpt>
      <trkpt lat="49.58771" lon="3.44828">
        <ele>171.78</ele>
        <time>2017-11-06T14:23:01.999Z</time>
      </trkpt>
      <trkpt lat="49.58773" lon="3.44841">
        <ele>172.08</ele>
        <time>2017-11-06T14:23:11.999Z</time>
      </trkpt>
      <trkpt lat="49.58777" lon="3.44855">
        <ele>172.16</ele>
        <time>2017-11-06T14:23:21.999Z</time>
      </trkpt>
      <trkpt lat="49.58781" lon="3.44872">
        <ele>172.33</ele>
        <time>2017-11-06T14:23:31.999Z</time>
      </trkpt>
      <trkpt lat="49.58786" lon="3.4489">
        <ele>172.79</ele>
        <time>2017-11-06T14:23:41.999Z</time>
      </trkpt>
      <trkpt lat="49.5879" lon="3.44908">
        <ele>173.14</ele>
        <time>2017-11-06T14:23:51.999Z</time>
      </trkpt>
      <trkpt lat="49.58793" lon="3.44921">
        <ele>173.29</ele>
        <time>2017-11-06T14:24:01.999Z</time>
      </trkpt>
      <trkpt lat="49.58794" lon="3.44936">
        <ele>173.14</ele>
        <time>2017-11-06T14:24:11.999Z</time>
      </trkpt>
      <trkpt lat="49.588" lon="3.44951">
        <ele>172.98</ele>
        <time>2017-11-06T14:24:21.999Z</time>
      </trkpt>
      <trkpt lat="49.58802" lon="3.44967">
        <ele>172.97</ele>
        <time>2017-11-06T14:24:31.999Z</time>
      </trkpt>
      <trkpt lat="49.58805" lon="3.44985">
        <ele>172.63</ele>
        <time>2017-11-06T14:24:41.999Z</time>
      </trkpt>
      <trkpt lat="49.58808" lon="3.45003">
        <ele>172.58</ele>
        <time>2017-11-06T14:24:51.999Z</time>
      </trkpt>
      <trkpt lat="49.5881" lon="3.45018">
        <ele>172.37</ele>
        <time>2017-11-06T14:25:01.999Z</time>
      </trkpt>
      <trkpt lat="49.58811" lon="3.45034">
        <ele>172.3</ele>
        <time>2017-11-06T14:25:11.999Z</time>
      </trkpt>
      <trkpt lat="49.58814" lon="3.45052">
        <ele>172.72</ele>
        <time>2017-11-06T14:25:21.999Z</time>
      </trkpt>
      <trkpt lat="49.58816" lon="3.4507">
        <ele>173.27</ele>
        <time>2017-11-06T14:25:31.999Z</time>
      </trkpt>
      <trkpt lat="49.58822" lon="3.45082">
        <ele>173.88</ele>
        <time>2017-11-06T14:25:41.999Z</time>
      </trkpt>
      <trkpt lat="49.58834" lon="3.45087">
        <ele>174.89</ele>
        <time>2017-11-06T14:25:51.999Z</time>
      </trkpt>
      <trkpt lat="49.58847" lon="3.45082">
        <ele>175.71</ele>
        <time>2017-11-06T14:26:01.999Z</time>
      </trkpt>
      <trkpt lat="49.58858" lon="3.4508">
        <ele>175.71</ele>
        <time>2017-11-06T14:26:11.999Z</time>
      </trkpt>
      <trkpt lat="49.58867" lon="3.45075">
        <ele>175.33</ele>
        <time>2017-11-06T14:26:21.999Z</time>
      </trkpt>
      <trkpt lat="49.58881" lon="3.45071">
        <ele>175.02</ele>
        <time>2017-11-06T14:26:31.999Z</time>
      </trkpt>
      <trkpt lat="49.58894" lon="3.45066">
        <ele>174.83</ele>
        <time>2017-11-06T14:26:41.999Z</time>
      </trkpt>
      <trkpt lat="49.58908" lon="3.4506">
        <ele>174.57</ele>
        <time>2017-11-06T14:26:51.999Z</time>
      </trkpt>
      <trkpt lat="49.5892" lon="3.45055">
        <ele>174.33</ele>
        <time>2017-11-06T14:27:01.999Z</time>
      </trkpt>
      <trkpt lat="49.58933" lon="3.45051">
        <ele>174.23</ele>
        <time>2017-11-06T14:27:11.999Z</time>
      </trkpt>
      <trkpt lat="49.58945" lon="3.45049">
        <ele>174.58</ele>
        <time>2017-11-06T14:27:21.999Z</time>
      </trkpt>
      <trkpt lat="49.58957" lon="3.45042">
        <ele>175.39</ele>
        <time>2017-11-06T14:27:31.999Z</time>
      </trkpt>
      <trkpt lat="49.58973" lon="3.45033">
        <ele>176.11</ele>
        <time>2017-11-06T14:27:41.999Z</time>
      </trkpt>
      <trkpt lat="49.58987" lon="3.45027">
        <ele>176.66</ele>
        <time>2017-11-06T14:27:51.999Z</time>
      </trkpt>
      <trkpt lat="49.59002" lon="3.45021">
        <ele>176.92</ele>
        <time>2017-11-06T14:28:01.999Z</time>
      </trkpt>
      <trkpt lat="49.5901" lon="3.4502">
        <ele>176.83</ele>
        <time>2017-11-06T14:28:11.999Z</time>
      </trkpt>
      <trkpt lat="49.59025" lon="3.45019">
        <ele>177.03</ele>
        <time>2017-11-06T14:28:21.999Z</time>
      </trkpt>
      <trkpt lat="49.59035" lon="3.45018">
        <ele>177.63</ele>
        <time>2017-11-06T14:28:31.999Z</time>
      </trkpt>
      <trkpt lat="49.59046" lon="3.45015">
        <ele>178.09</ele>
        <time>2017-11-06T14:28:41.999Z</time>
      </trkpt>
      <trkpt lat="49.5906" lon="3.45013">
        <ele>178.34</ele>
        <time>2017-11-06T14:28:51.999Z</time>
      </trkpt>
      <trkpt lat="49.59075" lon="3.45008">
        <ele>178.38</ele>
        <time>2017-11-06T14:29:01.999Z</time>
      </trkpt>
      <trkpt lat="49.59089" lon="3.45001">
        <ele>178.53</ele>
        <time>2017-11-06T14:29:11.999Z</time>
      </trkpt>
      <trkpt lat="49.59097" lon="3.44999">
        <ele>178.81</ele>
        <time>2017-11-06T14:29:21.999Z</time>
      </trkpt>
      <trkpt lat="49.59105" lon="3.44997">
        <ele>178.79</ele>
        <time>2017-11-06T14:29:31.999Z</time>
      </trkpt>
      <trkpt lat="49.5913" lon="3.44985">
        <ele>178.7</ele>
        <time>2017-11-06T14:29:41.999Z</time>
      </trkpt>
      <trkpt lat="49.59156" lon="3.44965">
        <ele>180.85</ele>
        <time>2017-11-06T14:29:51.999Z</time>
      </trkpt>
      <trkpt lat="49.59169" lon="3.44958">
        <ele>184.37</ele>
        <time>2017-11-06T14:30:01.999Z</time>
      </trkpt>
      <trkpt lat="49.5918" lon="3.44954">
        <ele>187.98</ele>
        <time>2017-11-06T14:30:11.999Z</time>
      </trkpt>
      <trkpt lat="49.59193" lon="3.44947">
        <ele>190.47</ele>
        <time>2017-11-06T14:30:21.999Z</time>
      </trkpt>
      <trkpt lat="49.5921" lon="3.44941">
        <ele>192.74</ele>
        <time>2017-11-06T14:30:31.999Z</time>
      </trkpt>
      <trkpt lat="49.59227" lon="3.44937">
        <ele>194.49</ele>
        <time>2017-11-06T14:30:41.999Z</time>
      </trkpt>
      <trkpt lat="49.59239" lon="3.44933">
        <ele>195.58</ele>
        <time>2017-11-06T14:30:51.999Z</time>
      </trkpt>
      <trkpt lat="49.59252" lon="3.44933">
        <ele>196.19</ele>
        <time>2017-11-06T14:31:01.999Z</time>
      </trkpt>
      <trkpt lat="49.5927" lon="3.44929">
        <ele>195.75</ele>
        <time>2017-11-06T14:31:11.999Z</time>
      </trkpt>
      <trkpt lat="49.59283" lon="3.44927">
        <ele>193.61</ele>
        <time>2017-11-06T14:31:21.999Z</time>
      </trkpt>
      <trkpt lat="49.59292" lon="3.44927">
        <ele>191.32</ele>
        <time>2017-11-06T14:31:31.000Z</time>
      </trkpt>
      <trkpt lat="49.59303" lon="3.44925">
        <ele>188.64</ele>
        <time>2017-11-06T14:31:41.000Z</time>
      </trkpt>
      <trkpt lat="49.59316" lon="3.44922">
        <ele>186.49</ele>
        <time>2017-11-06T14:31:51.000Z</time>
      </trkpt>
      <trkpt lat="49.59329" lon="3.44917">
        <ele>185.02</ele>
        <time>2017-11-06T14:32:01.000Z</time>
      </trkpt>
      <trkpt lat="49.5934" lon="3.44915">
        <ele>184.17</ele>
        <time>2017-11-06T14:32:11.000Z</time>
      </trkpt>
      <trkpt lat="49.59353" lon="3.44908">
        <ele>183.68</ele>
        <time>2017-11-06T14:32:21.000Z</time>
      </trkpt>
      <trkpt lat="49.59365" lon="3.44902">
        <ele>183.41</ele>
        <time>2017-11-06T14:32:31.000Z</time>
      </trkpt>
      <trkpt lat="49.59376" lon="3.44895">
        <ele>183.46</ele>
        <time>2017-11-06T14:32:41.000Z</time>
      </trkpt>
      <trkpt lat="49.59389" lon="3.4489">
        <ele>183.4</ele>
        <time>2017-11-06T14:32:51.000Z</time>
      </trkpt>
      <trkpt lat="49.59402" lon="3.44883">
        <ele>183.29</ele>
        <time>2017-11-06T14:33:01.000Z</time>
      </trkpt>
      <trkpt lat="49.59415" lon="3.44876">
        <ele>183.05</ele>
        <time>2017-11-06T14:33:11.000Z</time>
      </trkpt>
      <trkpt lat="49.59428" lon="3.44873">
        <ele>182.8</ele>
        <time>2017-11-06T14:33:21.000Z</time>
      </trkpt>
      <trkpt lat="49.59441" lon="3.44869">
        <ele>182.72</ele>
        <time>2017-11-06T14:33:31.000Z</time>
      </trkpt>
      <trkpt lat="49.59452" lon="3.44867">
        <ele>182.88</ele>
        <time>2017-11-06T14:33:41.000Z</time>
      </trkpt>
      <trkpt lat="49.59465" lon="3.44862">
        <ele>183.1</ele>
        <time>2017-11-06T14:33:51.000Z</time>
      </trkpt>
      <trkpt lat="49.59479" lon="3.44856">
        <ele>183.31</ele>
        <time>2017-11-06T14:34:01.000Z</time>
      </trkpt>
      <trkpt lat="49.59489" lon="3.44848">
        <ele>183.43</ele>
        <time>2017-11-06T14:34:11.000Z</time>
      </trkpt>
      <trkpt lat="49.59499" lon="3.44842">
        <ele>183.51</ele>
        <time>2017-11-06T14:34:21.000Z</time>
      </trkpt>
      <trkpt lat="49.59512" lon="3.44838">
        <ele>183.2</ele>
        <time>2017-11-06T14:34:31.000Z</time>
      </trkpt>
      <trkpt lat="49.59526" lon="3.44834">
        <ele>183.09</ele>
        <time>2017-11-06T14:34:41.000Z</time>
      </trkpt>
      <trkpt lat="49.59535" lon="3.44834">
        <ele>183.16</ele>
        <time>2017-11-06T14:34:51.000Z</time>
      </trkpt>
      <trkpt lat="49.59547" lon="3.44831">
        <ele>183.37</ele>
        <time>2017-11-06T14:35:01.000Z</time>
      </trkpt>
      <trkpt lat="49.59558" lon="3.44828">
        <ele>183.73</ele>
        <time>2017-11-06T14:35:11.000Z</time>
      </trkpt>
      <trkpt lat="49.5957" lon="3.44823">
        <ele>184.39</ele>
        <time>2017-11-06T14:35:21.000Z</time>
      </trkpt>
      <trkpt lat="49.5958" lon="3.44818">
        <ele>185.59</ele>
        <time>2017-11-06T14:35:31.000Z</time>
      </trkpt>
      <trkpt lat="49.59591" lon="3.44815">
        <ele>187.18</ele>
        <time>2017-11-06T14:35:41.000Z</time>
      </trkpt>
      <trkpt lat="49.59603" lon="3.44809">
        <ele>188.53</ele>
        <time>2017-11-06T14:35:51.000Z</time>
      </trkpt>
      <trkpt lat="49.59612" lon="3.44807">
        <ele>189.67</ele>
        <time>2017-11-06T14:36:01.000Z</time>
      </trkpt>
      <trkpt lat="49.59629" lon="3.44802">
        <ele>190.97</ele>
        <time>2017-11-06T14:36:11.000Z</time>
      </trkpt>
      <trkpt lat="49.59639" lon="3.44801">
        <ele>191.94</ele>
        <time>2017-11-06T14:36:21.000Z</time>
      </trkpt>
      <trkpt lat="49.59649" lon="3.44798">
        <ele>192.45</ele>
        <time>2017-11-06T14:36:31.000Z</time>
      </trkpt>
      <trkpt lat="49.59661" lon="3.4479">
        <ele>192.5</ele>
        <time>2017-11-06T14:36:41.000Z</time>
      </trkpt>
      <trkpt lat="49.59671" lon="3.44784">
        <ele>192.31</ele>
        <time>2017-11-06T14:36:51.000Z</time>
      </trkpt>
      <trkpt lat="49.59684" lon="3.44776">
        <ele>192.1</ele>
        <time>2017-11-06T14:37:01.000Z</time>
      </trkpt>
      <trkpt lat="49.59694" lon="3.44772">
        <ele>192.12</ele>
        <time>2017-11-06T14:37:11.000Z</time>
      </trkpt>
      <trkpt lat="49.59704" lon="3.44767">
        <ele>192.51</ele>
        <time>2017-11-06T14:37:21.000Z</time>
      </trkpt>
      <trkpt lat="49.59718" lon="3.44757">
        <ele>193.09</ele>
        <time>2017-11-06T14:37:31.000Z</time>
      </trkpt>
      <trkpt lat="49.59733" lon="3.4475">
        <ele>193.96</ele>
        <time>2017-11-06T14:37:41.000Z</time>
      </trkpt>
      <trkpt lat="49.59748" lon="3.44744">
        <ele>194.28</ele>
        <time>2017-11-06T14:37:51.000Z</time>
      </trkpt>
      <trkpt lat="49.59756" lon="3.44741">
        <ele>193.78</ele>
        <time>2017-11-06T14:38:01.000Z</time>
      </trkpt>
      <trkpt lat="49.59766" lon="3.44736">
        <ele>191.83</ele>
        <time>2017-11-06T14:38:11.000Z</time>
      </trkpt>
      <trkpt lat="49.59774" lon="3.44732">
        <ele>189.34</ele>
        <time>2017-11-06T14:38:21.000Z</time>
      </trkpt>
      <trkpt lat="49.59786" lon="3.44731">
        <ele>186.7</ele>
        <time>2017-11-06T14:38:31.000Z</time>
      </trkpt>
      <trkpt lat="49.59796" lon="3.44729">
        <ele>183.95</ele>
        <time>2017-11-06T14:38:41.000Z</time>
      </trkpt>
      <trkpt lat="49.59811" lon="3.44724">
        <ele>181.38</ele>
        <time>2017-11-06T14:38:51.000Z</time>
      </trkpt>
      <trkpt lat="49.59823" lon="3.44721">
        <ele>179.11</ele>
        <time>2017-11-06T14:39:01.000Z</time>
      </trkpt>
      <trkpt lat="49.59833" lon="3.44721">
        <ele>177.42</ele>
        <time>2017-11-06T14:39:11.000Z</time>
      </trkpt>
      <trkpt lat="49.59845" lon="3.44718">
        <ele>176.2</ele>
        <time>2017-11-06T14:39:21.000Z</time>
      </trkpt>
      <trkpt lat="49.59851" lon="3.44718">
        <ele>175.16</ele>
        <time>2017-11-06T14:39:31.000Z</time>
      </trkpt>
      <trkpt lat="49.59852" lon="3.44719">
        <ele>174.75</ele>
        <time>2017-11-06T14:39:48.000Z</time>
      </trkpt>
      <trkpt lat="49.5985" lon="3.4472">
        <ele>174.61</ele>
        <time>2017-11-06T14:39:58.000Z</time>
      </trkpt>
      <trkpt lat="49.59851" lon="3.4472">
        <ele>174.58</ele>
        <time>2017-11-06T14:40:08.000Z</time>
      </trkpt>
      <trkpt lat="49.59853" lon="3.44718">
        <ele>174.56</ele>
        <time>2017-11-06T14:40:18.000Z</time>
      </trkpt>
      <trkpt lat="49.59852" lon="3.44719">
        <ele>174.53</ele>
        <time>2017-11-06T14:40:30.000Z</time>
      </trkpt>
      <trkpt lat="49.59851" lon="3.44717">
        <ele>174.63</ele>
        <time>2017-11-06T14:40:54.000Z</time>
      </trkpt>
      <trkpt lat="49.59852" lon="3.44713">
        <ele>174.25</ele>
        <time>2017-11-06T14:41:04.000Z</time>
      </trkpt>
      <trkpt lat="49.59855" lon="3.44707">
        <ele>174.17</ele>
        <time>2017-11-06T14:41:14.000Z</time>
      </trkpt>
      <trkpt lat="49.59864" lon="3.44695">
        <ele>174.49</ele>
        <time>2017-11-06T14:41:24.000Z</time>
      </trkpt>
      <trkpt lat="49.59872" lon="3.4469">
        <ele>175.37</ele>
        <time>2017-11-06T14:41:34.000Z</time>
      </trkpt>
      <trkpt lat="49.5988" lon="3.44681">
        <ele>176.25</ele>
        <time>2017-11-06T14:41:44.000Z</time>
      </trkpt>
      <trkpt lat="49.5989" lon="3.44672">
        <ele>177.14</ele>
        <time>2017-11-06T14:41:54.000Z</time>
      </trkpt>
      <trkpt lat="49.59898" lon="3.44657">
        <ele>177.69</ele>
        <time>2017-11-06T14:42:04.000Z</time>
      </trkpt>
      <trkpt lat="49.59909" lon="3.44646">
        <ele>177.62</ele>
        <time>2017-11-06T14:42:14.000Z</time>
      </trkpt>
      <trkpt lat="49.59917" lon="3.44637">
        <ele>177.11</ele>
        <time>2017-11-06T14:42:24.000Z</time>
      </trkpt>
      <trkpt lat="49.59928" lon="3.44625">
        <ele>176.78</ele>
        <time>2017-11-06T14:42:34.000Z</time>
      </trkpt>
      <trkpt lat="49.59936" lon="3.44616">
        <ele>176.03</ele>
        <time>2017-11-06T14:42:44.000Z</time>
      </trkpt>
      <trkpt lat="49.59944" lon="3.44607">
        <ele>175.36</ele>
        <time>2017-11-06T14:42:54.000Z</time>
      </trkpt>
      <trkpt lat="49.59956" lon="3.4459">
        <ele>175.08</ele>
        <time>2017-11-06T14:43:04.000Z</time>
      </trkpt>
      <trkpt lat="49.59963" lon="3.44579">
        <ele>174.74</ele>
        <time>2017-11-06T14:43:14.000Z</time>
      </trkpt>
      <trkpt lat="49.59973" lon="3.44557">
        <ele>174.53</ele>
        <time>2017-11-06T14:43:24.000Z</time>
      </trkpt>
      <trkpt lat="49.59981" lon="3.44544">
        <ele>175.04</ele>
        <time>2017-11-06T14:43:34.000Z</time>
      </trkpt>
      <trkpt lat="49.59987" lon="3.44536">
        <ele>175.82</ele>
        <time>2017-11-06T14:43:44.000Z</time>
      </trkpt>
      <trkpt lat="49.59995" lon="3.44524">
        <ele>177.51</ele>
        <time>2017-11-06T14:43:54.000Z</time>
      </trkpt>
      <trkpt lat="49.60005" lon="3.44512">
        <ele>179.04</ele>
        <time>2017-11-06T14:44:04.000Z</time>
      </trkpt>
      <trkpt lat="49.60012" lon="3.44504">
        <ele>180.03</ele>
        <time>2017-11-06T14:44:14.000Z</time>
      </trkpt>
      <trkpt lat="49.60023" lon="3.44489">
        <ele>179.65</ele>
        <time>2017-11-06T14:44:24.000Z</time>
      </trkpt>
      <trkpt lat="49.60032" lon="3.4448">
        <ele>179.18</ele>
        <time>2017-11-06T14:44:34.000Z</time>
      </trkpt>
      <trkpt lat="49.60043" lon="3.44466">
        <ele>178.62</ele>
        <time>2017-11-06T14:44:44.000Z</time>
      </trkpt>
      <trkpt lat="49.60052" lon="3.44456">
        <ele>178.28</ele>
        <time>2017-11-06T14:44:54.000Z</time>
      </trkpt>
      <trkpt lat="49.60057" lon="3.44451">
        <ele>177.82</ele>
        <time>2017-11-06T14:45:04.000Z</time>
      </trkpt>
      <trkpt lat="49.60071" lon="3.44443">
        <ele>177.88</ele>
        <time>2017-11-06T14:45:14.000Z</time>
      </trkpt>
      <trkpt lat="49.60081" lon="3.44433">
        <ele>177.74</ele>
        <time>2017-11-06T14:45:24.000Z</time>
      </trkpt>
      <trkpt lat="49.60087" lon="3.44429">
        <ele>177.5</ele>
        <time>2017-11-06T14:45:34.000Z</time>
      </trkpt>
      <trkpt lat="49.60095" lon="3.44417">
        <ele>176.65</ele>
        <time>2017-11-06T14:45:44.000Z</time>
      </trkpt>
      <trkpt lat="49.60108" lon="3.4441">
        <ele>175.28</ele>
        <time>2017-11-06T14:45:54.000Z</time>
      </trkpt>
      <trkpt lat="49.60118" lon="3.44403">
        <ele>173.94</ele>
        <time>2017-11-06T14:46:04.000Z</time>
      </trkpt>
      <trkpt lat="49.6013" lon="3.44395">
        <ele>173.04</ele>
        <time>2017-11-06T14:46:14.000Z</time>
      </trkpt>
      <trkpt lat="49.6014" lon="3.44389">
        <ele>172.39</ele>
        <time>2017-11-06T14:46:24.000Z</time>
      </trkpt>
      <trkpt lat="49.60148" lon="3.44381">
        <ele>171.73</ele>
        <time>2017-11-06T14:46:34.000Z</time>
      </trkpt>
      <trkpt lat="49.60156" lon="3.4437">
        <ele>171.25</ele>
        <time>2017-11-06T14:46:44.000Z</time>
      </trkpt>
      <trkpt lat="49.60165" lon="3.44358">
        <ele>170.64</ele>
        <time>2017-11-06T14:46:54.000Z</time>
      </trkpt>
      <trkpt lat="49.60167" lon="3.44354">
        <ele>169.45</ele>
        <time>2017-11-06T14:47:04.000Z</time>
      </trkpt>
      <trkpt lat="49.60174" lon="3.4434">
        <ele>167.65</ele>
        <time>2017-11-06T14:47:14.000Z</time>
      </trkpt>
      <trkpt lat="49.60178" lon="3.44327">
        <ele>164.52</ele>
        <time>2017-11-06T14:47:24.000Z</time>
      </trkpt>
      <trkpt lat="49.6018" lon="3.44315">
        <ele>161.43</ele>
        <time>2017-11-06T14:47:34.000Z</time>
      </trkpt>
      <trkpt lat="49.60179" lon="3.44299">
        <ele>157.28</ele>
        <time>2017-11-06T14:47:44.000Z</time>
      </trkpt>
      <trkpt lat="49.60181" lon="3.44282">
        <ele>153.39</ele>
        <time>2017-11-06T14:47:54.000Z</time>
      </trkpt>
      <trkpt lat="49.60182" lon="3.44274">
        <ele>150.72</ele>
        <time>2017-11-06T14:48:04.000Z</time>
      </trkpt>
      <trkpt lat="49.60187" lon="3.44266">
        <ele>149.1</ele>
        <time>2017-11-06T14:48:14.000Z</time>
      </trkpt>
      <trkpt lat="49.60195" lon="3.4425">
        <ele>148.99</ele>
        <time>2017-11-06T14:48:24.000Z</time>
      </trkpt>
      <trkpt lat="49.60221" lon="3.44232">
        <ele>152.08</ele>
        <time>2017-11-06T14:48:34.000Z</time>
      </trkpt>
      <trkpt lat="49.60233" lon="3.44227">
        <ele>157.3</ele>
        <time>2017-11-06T14:48:44.000Z</time>
      </trkpt>
      <trkpt lat="49.60243" lon="3.44211">
        <ele>162.13</ele>
        <time>2017-11-06T14:48:54.000Z</time>
      </trkpt>
      <trkpt lat="49.60248" lon="3.44199">
        <ele>165.45</ele>
        <time>2017-11-06T14:49:04.000Z</time>
      </trkpt>
      <trkpt lat="49.60254" lon="3.44187">
        <ele>167.28</ele>
        <time>2017-11-06T14:49:14.000Z</time>
      </trkpt>
      <trkpt lat="49.60259" lon="3.44175">
        <ele>168.66</ele>
        <time>2017-11-06T14:49:24.000Z</time>
      </trkpt>
      <trkpt lat="49.60266" lon="3.44162">
        <ele>168.67</ele>
        <time>2017-11-06T14:49:34.000Z</time>
      </trkpt>
      <trkpt lat="49.60269" lon="3.44145">
        <ele>166.87</ele>
        <time>2017-11-06T14:49:44.000Z</time>
      </trkpt>
      <trkpt lat="49.60271" lon="3.44133">
        <ele>164.01</ele>
        <time>2017-11-06T14:49:54.000Z</time>
      </trkpt>
      <trkpt lat="49.60275" lon="3.44118">
        <ele>160.56</ele>
        <time>2017-11-06T14:50:04.000Z</time>
      </trkpt>
      <trkpt lat="49.60278" lon="3.44101">
        <ele>157.52</ele>
        <time>2017-11-06T14:50:14.000Z</time>
      </trkpt>
      <trkpt lat="49.60282" lon="3.44086">
        <ele>154.9</ele>
        <time>2017-11-06T14:50:24.000Z</time>
      </trkpt>
      <trkpt lat="49.60286" lon="3.44077">
        <ele>152.8</ele>
        <time>2017-11-06T14:50:34.000Z</time>
      </trkpt>
      <trkpt lat="49.6029" lon="3.44065">
        <ele>151.22</ele>
        <time>2017-11-06T14:50:44.000Z</time>
      </trkpt>
      <trkpt lat="49.60297" lon="3.44048">
        <ele>149.64</ele>
        <time>2017-11-06T14:50:54.000Z</time>
      </trkpt>
      <trkpt lat="49.60301" lon="3.44046">
        <ele>148.04</ele>
        <time>2017-11-06T14:51:04.000Z</time>
      </trkpt>
      <trkpt lat="49.60309" lon="3.4404">
        <ele>145.79</ele>
        <time>2017-11-06T14:51:14.000Z</time>
      </trkpt>
      <trkpt lat="49.60314" lon="3.44036">
        <ele>144.36</ele>
        <time>2017-11-06T14:51:24.000Z</time>
      </trkpt>
      <trkpt lat="49.60327" lon="3.44019">
        <ele>142.24</ele>
        <time>2017-11-06T14:51:34.000Z</time>
      </trkpt>
      <trkpt lat="49.60331" lon="3.44014">
        <ele>140.25</ele>
        <time>2017-11-06T14:51:44.000Z</time>
      </trkpt>
      <trkpt lat="49.60342" lon="3.43999">
        <ele>137.89</ele>
        <time>2017-11-06T14:51:54.000Z</time>
      </trkpt>
      <trkpt lat="49.60352" lon="3.43992">
        <ele>136.21</ele>
        <time>2017-11-06T14:52:04.000Z</time>
      </trkpt>
      <trkpt lat="49.60359" lon="3.43985">
        <ele>134.33</ele>
        <time>2017-11-06T14:52:14.000Z</time>
      </trkpt>
      <trkpt lat="49.60367" lon="3.4397">
        <ele>132.81</ele>
        <time>2017-11-06T14:52:24.000Z</time>
      </trkpt>
      <trkpt lat="49.6037" lon="3.43962">
        <ele>131.02</ele>
        <time>2017-11-06T14:52:34.000Z</time>
      </trkpt>
      <trkpt lat="49.60373" lon="3.43959">
        <ele>128.93</ele>
        <time>2017-11-06T14:52:44.000Z</time>
      </trkpt>
      <trkpt lat="49.60373" lon="3.43958">
        <ele>128.41</ele>
        <time>2017-11-06T14:53:05.000Z</time>
      </trkpt>
      <trkpt lat="49.60375" lon="3.43957">
        <ele>128.25</ele>
        <time>2017-11-06T14:53:15.000Z</time>
      </trkpt>
      <trkpt lat="49.60375" lon="3.43955">
        <ele>128.06</ele>
        <time>2017-11-06T14:53:25.000Z</time>
      </trkpt>
      <trkpt lat="49.60375" lon="3.4395">
        <ele>126.92</ele>
        <time>2017-11-06T14:53:35.000Z</time>
      </trkpt>
      <trkpt lat="49.60377" lon="3.43951">
        <ele>124.49</ele>
        <time>2017-11-06T14:53:45.000Z</time>
      </trkpt>
      <trkpt lat="49.60378" lon="3.43949">
        <ele>122.71</ele>
        <time>2017-11-06T14:53:55.000Z</time>
      </trkpt>
      <trkpt lat="49.6038" lon="3.4394">
        <ele>119.57</ele>
        <time>2017-11-06T14:54:05.000Z</time>
      </trkpt>
      <trkpt lat="49.60382" lon="3.4393">
        <ele>116.57</ele>
        <time>2017-11-06T14:54:15.000Z</time>
      </trkpt>
      <trkpt lat="49.60385" lon="3.43919">
        <ele>113.5</ele>
        <time>2017-11-06T14:54:25.000Z</time>
      </trkpt>
      <trkpt lat="49.60389" lon="3.43909">
        <ele>110.61</ele>
        <time>2017-11-06T14:54:35.000Z</time>
      </trkpt>
      <trkpt lat="49.60389" lon="3.43908">
        <ele>109.53</ele>
        <time>2017-11-06T14:54:52.000Z</time>
      </trkpt>
      <trkpt lat="49.6039" lon="3.43907">
        <ele>108.87</ele>
        <time>2017-11-06T14:55:02.000Z</time>
      </trkpt>
      <trkpt lat="49.60391" lon="3.43906">
        <ele>108.03</ele>
        <time>2017-11-06T14:55:25.000Z</time>
      </trkpt>
      <trkpt lat="49.60391" lon="3.43904">
        <ele>106.37</ele>
        <time>2017-11-06T14:55:41.999Z</time>
      </trkpt>
      <trkpt lat="49.60392" lon="3.43896">
        <ele>104.21</ele>
        <time>2017-11-06T14:55:51.999Z</time>
      </trkpt>
      <trkpt lat="49.60388" lon="3.43884">
        <ele>102.12</ele>
        <time>2017-11-06T14:56:01.999Z</time>
      </trkpt>
      <trkpt lat="49.60381" lon="3.43873">
        <ele>101.12</ele>
        <time>2017-11-06T14:56:11.999Z</time>
      </trkpt>
      <trkpt lat="49.60374" lon="3.43863">
        <ele>100.94</ele>
        <time>2017-11-06T14:56:21.999Z</time>
      </trkpt>
      <trkpt lat="49.60366" lon="3.43851">
        <ele>101.61</ele>
        <time>2017-11-06T14:56:31.999Z</time>
      </trkpt>
      <trkpt lat="49.60356" lon="3.43842">
        <ele>102.68</ele>
        <time>2017-11-06T14:56:41.999Z</time>
      </trkpt>
      <trkpt lat="49.60347" lon="3.43832">
        <ele>103.59</ele>
        <time>2017-11-06T14:56:51.999Z</time>
      </trkpt>
      <trkpt lat="49.60338" lon="3.43825">
        <ele>104.24</ele>
        <time>2017-11-06T14:57:01.999Z</time>
      </trkpt>
      <trkpt lat="49.60328" lon="3.43815">
        <ele>104.6</ele>
        <time>2017-11-06T14:57:11.999Z</time>
      </trkpt>
      <trkpt lat="49.60319" lon="3.43808">
        <ele>104.73</ele>
        <time>2017-11-06T14:57:21.999Z</time>
      </trkpt>
      <trkpt lat="49.60309" lon="3.43798">
        <ele>105.16</ele>
        <time>2017-11-06T14:57:31.999Z</time>
      </trkpt>
      <trkpt lat="49.60296" lon="3.43789">
        <ele>105.6</ele>
        <time>2017-11-06T14:57:41.999Z</time>
      </trkpt>
      <trkpt lat="49.60286" lon="3.43782">
        <ele>105.64</ele>
        <time>2017-11-06T14:57:51.999Z</time>
      </trkpt>
      <trkpt lat="49.60278" lon="3.43772">
        <ele>105.44</ele>
        <time>2017-11-06T14:58:01.999Z</time>
      </trkpt>
      <trkpt lat="49.60268" lon="3.43763">
        <ele>105.23</ele>
        <time>2017-11-06T14:58:11.999Z</time>
      </trkpt>
      <trkpt lat="49.60257" lon="3.43751">
        <ele>105.08</ele>
        <time>2017-11-06T14:58:21.999Z</time>
      </trkpt>
      <trkpt lat="49.60248" lon="3.43744">
        <ele>105.25</ele>
        <time>2017-11-06T14:58:31.999Z</time>
      </trkpt>
      <trkpt lat="49.60235" lon="3.43734">
        <ele>105.75</ele>
        <time>2017-11-06T14:58:41.999Z</time>
      </trkpt>
      <trkpt lat="49.60228" lon="3.43726">
        <ele>106.03</ele>
        <time>2017-11-06T14:58:51.999Z</time>
      </trkpt>
      <trkpt lat="49.60216" lon="3.43712">
        <ele>106.05</ele>
        <time>2017-11-06T14:59:01.999Z</time>
      </trkpt>
      <trkpt lat="49.60208" lon="3.43701">
        <ele>106.43</ele>
        <time>2017-11-06T14:59:11.999Z</time>
      </trkpt>
      <trkpt lat="49.60197" lon="3.4369">
        <ele>107</ele>
        <time>2017-11-06T14:59:21.999Z</time>
      </trkpt>
      <trkpt lat="49.60186" lon="3.43683">
        <ele>107.5</ele>
        <time>2017-11-06T14:59:31.999Z</time>
      </trkpt>
      <trkpt lat="49.60178" lon="3.43671">
        <ele>107.13</ele>
        <time>2017-11-06T14:59:41.999Z</time>
      </trkpt>
      <trkpt lat="49.60165" lon="3.43659">
        <ele>106.95</ele>
        <time>2017-11-06T14:59:51.999Z</time>
      </trkpt>
      <trkpt lat="49.60154" lon="3.43648">
        <ele>106.88</ele>
        <time>2017-11-06T15:00:01.999Z</time>
      </trkpt>
      <trkpt lat="49.60149" lon="3.43635">
        <ele>106.92</ele>
        <time>2017-11-06T15:00:11.999Z</time>
      </trkpt>
      <trkpt lat="49.60138" lon="3.43624">
        <ele>107.18</ele>
        <time>2017-11-06T15:00:21.999Z</time>
      </trkpt>
      <trkpt lat="49.60127" lon="3.43609">
        <ele>107.6</ele>
        <time>2017-11-06T15:00:31.999Z</time>
      </trkpt>
      <trkpt lat="49.6012" lon="3.43599">
        <ele>108.19</ele>
        <time>2017-11-06T15:00:41.999Z</time>
      </trkpt>
      <trkpt lat="49.60111" lon="3.43587">
        <ele>107.7</ele>
        <time>2017-11-06T15:00:51.999Z</time>
      </trkpt>
      <trkpt lat="49.601" lon="3.43575">
        <ele>107.45</ele>
        <time>2017-11-06T15:01:01.999Z</time>
      </trkpt>
      <trkpt lat="49.60094" lon="3.43569">
        <ele>106.68</ele>
        <time>2017-11-06T15:01:11.999Z</time>
      </trkpt>
      <trkpt lat="49.60084" lon="3.43553">
        <ele>106.33</ele>
        <time>2017-11-06T15:01:21.999Z</time>
      </trkpt>
      <trkpt lat="49.60078" lon="3.43547">
        <ele>105.53</ele>
        <time>2017-11-06T15:01:31.999Z</time>
      </trkpt>
      <trkpt lat="49.60066" lon="3.4353">
        <ele>104.39</ele>
        <time>2017-11-06T15:01:41.999Z</time>
      </trkpt>
      <trkpt lat="49.60056" lon="3.43518">
        <ele>103.72</ele>
        <time>2017-11-06T15:01:51.999Z</time>
      </trkpt>
      <trkpt lat="49.60046" lon="3.43507">
        <ele>103.49</ele>
        <time>2017-11-06T15:02:01.999Z</time>
      </trkpt>
      <trkpt lat="49.60037" lon="3.43498">
        <ele>103.47</ele>
        <time>2017-11-06T15:02:11.999Z</time>
      </trkpt>
      <trkpt lat="49.6003" lon="3.43486">
        <ele>103.03</ele>
        <time>2017-11-06T15:02:21.999Z</time>
      </trkpt>
      <trkpt lat="49.60019" lon="3.43471">
        <ele>102.88</ele>
        <time>2017-11-06T15:02:31.999Z</time>
      </trkpt>
      <trkpt lat="49.60008" lon="3.43459">
        <ele>103.63</ele>
        <time>2017-11-06T15:02:41.999Z</time>
      </trkpt>
      <trkpt lat="49.6" lon="3.43449">
        <ele>104.19</ele>
        <time>2017-11-06T15:02:51.999Z</time>
      </trkpt>
      <trkpt lat="49.59991" lon="3.43438">
        <ele>103.15</ele>
        <time>2017-11-06T15:03:01.999Z</time>
      </trkpt>
      <trkpt lat="49.59983" lon="3.43427">
        <ele>101.81</ele>
        <time>2017-11-06T15:03:11.999Z</time>
      </trkpt>
      <trkpt lat="49.59972" lon="3.43415">
        <ele>100.73</ele>
        <time>2017-11-06T15:03:21.999Z</time>
      </trkpt>
      <trkpt lat="49.59963" lon="3.43406">
        <ele>98.69</ele>
        <time>2017-11-06T15:03:31.999Z</time>
      </trkpt>
      <trkpt lat="49.59954" lon="3.43395">
        <ele>97.26</ele>
        <time>2017-11-06T15:03:41.999Z</time>
      </trkpt>
      <trkpt lat="49.59943" lon="3.43382">
        <ele>97.05</ele>
        <time>2017-11-06T15:03:51.999Z</time>
      </trkpt>
      <trkpt lat="49.59934" lon="3.43371">
        <ele>97.3</ele>
        <time>2017-11-06T15:04:01.999Z</time>
      </trkpt>
      <trkpt lat="49.59925" lon="3.43363">
        <ele>97.39</ele>
        <time>2017-11-06T15:04:11.999Z</time>
      </trkpt>
      <trkpt lat="49.59915" lon="3.43358">
        <ele>97.29</ele>
        <time>2017-11-06T15:04:21.999Z</time>
      </trkpt>
      <trkpt lat="49.59902" lon="3.43352">
        <ele>97.01</ele>
        <time>2017-11-06T15:04:31.999Z</time>
      </trkpt>
      <trkpt lat="49.59892" lon="3.43348">
        <ele>96.99</ele>
        <time>2017-11-06T15:04:41.999Z</time>
      </trkpt>
      <trkpt lat="49.59882" lon="3.43341">
        <ele>96.89</ele>
        <time>2017-11-06T15:04:51.999Z</time>
      </trkpt>
      <trkpt lat="49.59873" lon="3.43333">
        <ele>97.03</ele>
        <time>2017-11-06T15:05:01.999Z</time>
      </trkpt>
      <trkpt lat="49.5986" lon="3.43325">
        <ele>98.51</ele>
        <time>2017-11-06T15:05:11.999Z</time>
      </trkpt>
      <trkpt lat="49.59849" lon="3.43316">
        <ele>100.02</ele>
        <time>2017-11-06T15:05:21.999Z</time>
      </trkpt>
      <trkpt lat="49.59838" lon="3.43308">
        <ele>101.48</ele>
        <time>2017-11-06T15:05:31.999Z</time>
      </trkpt>
      <trkpt lat="49.59828" lon="3.43297">
        <ele>102.32</ele>
        <time>2017-11-06T15:05:41.999Z</time>
      </trkpt>
      <trkpt lat="49.59815" lon="3.43285">
        <ele>103.06</ele>
        <time>2017-11-06T15:05:51.999Z</time>
      </trkpt>
      <trkpt lat="49.59806" lon="3.43275">
        <ele>103.68</ele>
        <time>2017-11-06T15:06:01.999Z</time>
      </trkpt>
      <trkpt lat="49.59796" lon="3.43271">
        <ele>104.4</ele>
        <time>2017-11-06T15:06:11.999Z</time>
      </trkpt>
      <trkpt lat="49.59786" lon="3.43266">
        <ele>104.95</ele>
        <time>2017-11-06T15:06:21.999Z</time>
      </trkpt>
      <trkpt lat="49.59775" lon="3.43263">
        <ele>105.53</ele>
        <time>2017-11-06T15:06:31.999Z</time>
      </trkpt>
      <trkpt lat="49.59766" lon="3.43256">
        <ele>105.64</ele>
        <time>2017-11-06T15:06:41.999Z</time>
      </trkpt>
      <trkpt lat="49.59754" lon="3.43253">
        <ele>104.35</ele>
        <time>2017-11-06T15:06:51.999Z</time>
      </trkpt>
      <trkpt lat="49.59745" lon="3.43248">
        <ele>103.38</ele>
        <time>2017-11-06T15:07:01.999Z</time>
      </trkpt>
      <trkpt lat="49.59734" lon="3.43239">
        <ele>102.8</ele>
        <time>2017-11-06T15:07:11.999Z</time>
      </trkpt>
      <trkpt lat="49.59724" lon="3.43236">
        <ele>102.67</ele>
        <time>2017-11-06T15:07:21.999Z</time>
      </trkpt>
      <trkpt lat="49.59713" lon="3.43231">
        <ele>103.55</ele>
        <time>2017-11-06T15:07:31.999Z</time>
      </trkpt>
      <trkpt lat="49.597" lon="3.43227">
        <ele>104.7</ele>
        <time>2017-11-06T15:07:41.999Z</time>
      </trkpt>
      <trkpt lat="49.59691" lon="3.43222">
        <ele>105.35</ele>
        <time>2017-11-06T15:07:51.999Z</time>
      </trkpt>
      <trkpt lat="49.59677" lon="3.43223">
        <ele>105.17</ele>
        <time>2017-11-06T15:08:01.999Z</time>
      </trkpt>
      <trkpt lat="49.59666" lon="3.43225">
        <ele>104.34</ele>
        <time>2017-11-06T15:08:11.999Z</time>
      </trkpt>
      <trkpt lat="49.59655" lon="3.43221">
        <ele>104.21</ele>
        <time>2017-11-06T15:08:21.999Z</time>
      </trkpt>
      <trkpt lat="49.59642" lon="3.4323">
        <ele>104.4</ele>
        <time>2017-11-06T15:08:31.999Z</time>
      </trkpt>
      <trkpt lat="49.59632" lon="3.43229">
        <ele>104.62</ele>
        <time>2017-11-06T15:08:41.999Z</time>
      </trkpt>
      <trkpt lat="49.59617" lon="3.43233">
        <ele>104.43</ele>
        <time>2017-11-06T15:08:51.999Z</time>
      </trkpt>
      <trkpt lat="49.59608" lon="3.43238">
        <ele>104.84</ele>
        <time>2017-11-06T15:09:01.999Z</time>
      </trkpt>
      <trkpt lat="49.59596" lon="3.43244">
        <ele>105.77</ele>
        <time>2017-11-06T15:09:11.999Z</time>
      </trkpt>
      <trkpt lat="49.59583" lon="3.43251">
        <ele>106.49</ele>
        <time>2017-11-06T15:09:21.999Z</time>
      </trkpt>
      <trkpt lat="49.59568" lon="3.43256">
        <ele>106.49</ele>
        <time>2017-11-06T15:09:31.999Z</time>
      </trkpt>
      <trkpt lat="49.59557" lon="3.43256">
        <ele>105.97</ele>
        <time>2017-11-06T15:09:41.999Z</time>
      </trkpt>
      <trkpt lat="49.59547" lon="3.43252">
        <ele>105.42</ele>
        <time>2017-11-06T15:09:51.999Z</time>
      </trkpt>
      <trkpt lat="49.59539" lon="3.43247">
        <ele>104.72</ele>
        <time>2017-11-06T15:10:01.999Z</time>
      </trkpt>
      <trkpt lat="49.59531" lon="3.43233">
        <ele>104.43</ele>
        <time>2017-11-06T15:10:11.999Z</time>
      </trkpt>
      <trkpt lat="49.59523" lon="3.43218">
        <ele>103.85</ele>
        <time>2017-11-06T15:10:21.999Z</time>
      </trkpt>
      <trkpt lat="49.59518" lon="3.43203">
        <ele>102.78</ele>
        <time>2017-11-06T15:10:31.999Z</time>
      </trkpt>
      <trkpt lat="49.59512" lon="3.4319">
        <ele>101.41</ele>
        <time>2017-11-06T15:10:41.999Z</time>
      </trkpt>
      <trkpt lat="49.59507" lon="3.43175">
        <ele>100.67</ele>
        <time>2017-11-06T15:10:51.999Z</time>
      </trkpt>
      <trkpt lat="49.59496" lon="3.43161">
        <ele>100.85</ele>
        <time>2017-11-06T15:11:01.999Z</time>
      </trkpt>
      <trkpt lat="49.59485" lon="3.43162">
        <ele>101.38</ele>
        <time>2017-11-06T15:11:11.999Z</time>
      </trkpt>
      <trkpt lat="49.59475" lon="3.43169">
        <ele>102.92</ele>
        <time>2017-11-06T15:11:21.999Z</time>
      </trkpt>
      <trkpt lat="49.59462" lon="3.43172">
        <ele>104.26</ele>
        <time>2017-11-06T15:11:31.999Z</time>
      </trkpt>
      <trkpt lat="49.59451" lon="3.43173">
        <ele>105.46</ele>
        <time>2017-11-06T15:11:41.999Z</time>
      </trkpt>
      <trkpt lat="49.59439" lon="3.43175">
        <ele>106.26</ele>
        <time>2017-11-06T15:11:51.999Z</time>
      </trkpt>
      <trkpt lat="49.59423" lon="3.43171">
        <ele>107.57</ele>
        <time>2017-11-06T15:12:01.999Z</time>
      </trkpt>
      <trkpt lat="49.59413" lon="3.43169">
        <ele>109.3</ele>
        <time>2017-11-06T15:12:11.999Z</time>
      </trkpt>
      <trkpt lat="49.59403" lon="3.43163">
        <ele>110.61</ele>
        <time>2017-11-06T15:12:21.999Z</time>
      </trkpt>
      <trkpt lat="49.59392" lon="3.43157">
        <ele>111.82</ele>
        <time>2017-11-06T15:12:31.999Z</time>
      </trkpt>
      <trkpt lat="49.59381" lon="3.43148">
        <ele>112.71</ele>
        <time>2017-11-06T15:12:41.999Z</time>
      </trkpt>
      <trkpt lat="49.59371" lon="3.43141">
        <ele>112.1</ele>
        <time>2017-11-06T15:12:51.999Z</time>
      </trkpt>
      <trkpt lat="49.5936" lon="3.43136">
        <ele>111.53</ele>
        <time>2017-11-06T15:13:01.999Z</time>
      </trkpt>
      <trkpt lat="49.59349" lon="3.43128">
        <ele>111.55</ele>
        <time>2017-11-06T15:13:11.999Z</time>
      </trkpt>
      <trkpt lat="49.59343" lon="3.43122">
        <ele>111.92</ele>
        <time>2017-11-06T15:13:21.999Z</time>
      </trkpt>
      <trkpt lat="49.5933" lon="3.43114">
        <ele>112.35</ele>
        <time>2017-11-06T15:13:31.999Z</time>
      </trkpt>
      <trkpt lat="49.59319" lon="3.43106">
        <ele>111.56</ele>
        <time>2017-11-06T15:13:41.999Z</time>
      </trkpt>
      <trkpt lat="49.59307" lon="3.43095">
        <ele>110.4</ele>
        <time>2017-11-06T15:13:51.999Z</time>
      </trkpt>
      <trkpt lat="49.59298" lon="3.43087">
        <ele>109.77</ele>
        <time>2017-11-06T15:14:01.999Z</time>
      </trkpt>
      <trkpt lat="49.59288" lon="3.43081">
        <ele>109.17</ele>
        <time>2017-11-06T15:14:11.999Z</time>
      </trkpt>
      <trkpt lat="49.59279" lon="3.43076">
        <ele>109.07</ele>
        <time>2017-11-06T15:14:21.999Z</time>
      </trkpt>
      <trkpt lat="49.5927" lon="3.43073">
        <ele>109.44</ele>
        <time>2017-11-06T15:14:31.999Z</time>
      </trkpt>
      <trkpt lat="49.59263" lon="3.43067">
        <ele>109.55</ele>
        <time>2017-11-06T15:14:41.999Z</time>
      </trkpt>
      <trkpt lat="49.59261" lon="3.43064">
        <ele>109.01</ele>
        <time>2017-11-06T15:14:51.999Z</time>
      </trkpt>
      <trkpt lat="49.59263" lon="3.43066">
        <ele>108.94</ele>
        <time>2017-11-06T15:14:54.999Z</time>
      </trkpt>
    </trkseg>
  </trk>
</gpx>